Observation data for Sweetwater on 08/11/2019      Previous  Date  Next       Current Mesonet Observations  Soil Data  Daily Summary Page  Observations in Plain Language
KSW1 110500Z 15010KT 30/15 A2999 RMK A01 T03010153  RH  041%=      5-min Rain = 0
KSW1 110501Z 15011KT 30/15 A2999 RMK A01 T03010154  RH  041%=      5-min Rain = 0
KSW1 110502Z 16010KT 30/15 A2999 RMK A01 T03010154  RH  041%=      5-min Rain = 0
KSW1 110503Z 15011KT 30/15 A2999 RMK A01 T03010154  RH  041%=      5-min Rain = 0
KSW1 110504Z 16013KT 30/15 A2999 RMK A01 T03010154  RH  041%=      5-min Rain = 0
KSW1 110505Z 16012KT 30/15 A2999 RMK A01 T03010154  RH  041%=      5-min Rain = 0
KSW1 110506Z 16012KT 30/15 A2999 RMK A01 T03010154  RH  041%=      5-min Rain = 0
KSW1 110507Z 16011KT 30/15 A2999 RMK A01 T03000154  RH  041%=      5-min Rain = 0
KSW1 110508Z 16010G15KT 30/16 A2999 RMK A01 T02990155  RH  041%=      5-min Rain = 0
KSW1 110509Z 16012KT 30/16 A2999 RMK A01 T02980155  RH  042%=      5-min Rain = 0
KSW1 110510Z 16010KT 30/16 A2999 RMK A01 T02980155  RH  042%=      5-min Rain = 0
KSW1 110511Z 15012KT 30/16 A2999 RMK A01 T02980155  RH  042%=      5-min Rain = 0
KSW1 110512Z 16011KT 30/16 A2999 RMK A01 T02970155  RH  042%=      5-min Rain = 0
KSW1 110513Z 15011KT 30/16 A2999 RMK A01 T02970156  RH  042%=      5-min Rain = 0
KSW1 110514Z 16013KT 30/16 A2999 RMK A01 T02970156  RH  042%=      5-min Rain = 0
KSW1 110515Z 16013KT 30/16 A2999 RMK A01 T02970156  RH  042%=      5-min Rain = 0
KSW1 110516Z 16011KT 30/16 A2999 RMK A01 T02970156  RH  042%=      5-min Rain = 0
KSW1 110517Z 16011KT 30/16 A2999 RMK A01 T02970156  RH  042%=      5-min Rain = 0
KSW1 110518Z 16011KT 30/16 A30 RMK A01 T02970156  RH  043%=      5-min Rain = 0
KSW1 110519Z 16012KT 30/16 A30 RMK A01 T02970156  RH  043%=      5-min Rain = 0
KSW1 110520Z 16013KT 30/16 A2999 RMK A01 T02960157  RH  043%=      5-min Rain = 0
KSW1 110521Z 16011KT 30/16 A30 RMK A01 T02960157  RH  043%=      5-min Rain = 0
KSW1 110522Z 16012KT 30/16 A30 RMK A01 T02960157  RH  043%=      5-min Rain = 0
KSW1 110523Z 16011KT 30/16 A30 RMK A01 T02960157  RH  043%=      5-min Rain = 0
KSW1 110524Z 16009KT 30/16 A30 RMK A01 T02960157  RH  043%=      5-min Rain = 0
KSW1 110525Z 16011KT 30/16 A30 RMK A01 T02950157  RH  043%=      5-min Rain = 0
KSW1 110526Z 16011KT 29/16 A30 RMK A01 T02940157  RH  043%=      5-min Rain = 0
KSW1 110527Z 16011KT 30/16 A30 RMK A01 T02950157  RH  043%=      5-min Rain = 0
KSW1 110528Z 16011KT 30/16 A30 RMK A01 T02950158  RH  043%=      5-min Rain = 0
KSW1 110529Z 16011KT 30/16 A30 RMK A01 T02950158  RH  043%=      5-min Rain = 0
KSW1 110530Z 16011KT 30/16 A30 RMK A01 T02950158  RH  044%=      5-min Rain = 0
KSW1 110531Z 16011KT 29/16 A30 RMK A01 T02940158  RH  044%=      5-min Rain = 0
KSW1 110532Z 16011KT 29/16 A30 RMK A01 T02940158  RH  044%=      5-min Rain = 0
KSW1 110533Z 16012KT 29/16 A30 RMK A01 T02940158  RH  044%=      5-min Rain = 0
KSW1 110534Z 15011KT 30/16 A30 RMK A01 T02950158  RH  044%=      5-min Rain = 0
KSW1 110535Z 16011KT 29/16 A30 RMK A01 T02940158  RH  044%=      5-min Rain = 0
KSW1 110536Z 16011KT 29/16 A30 RMK A01 T02940158  RH  044%=      5-min Rain = 0
KSW1 110537Z 16010KT 29/16 A30 RMK A01 T02940158  RH  044%=      5-min Rain = 0
KSW1 110538Z 16010KT 29/16 A30 RMK A01 T02930158  RH  044%=      5-min Rain = 0
KSW1 110539Z 16011KT 29/16 A30 RMK A01 T02930158  RH  044%=      5-min Rain = 0
KSW1 110540Z 16011KT 29/16 A30 RMK A01 T02930159  RH  044%=      5-min Rain = 0
KSW1 110541Z 15011KT 29/16 A30 RMK A01 T02920158  RH  044%=      5-min Rain = 0
KSW1 110542Z 15011KT 29/16 A30 RMK A01 T02920158  RH  044%=      5-min Rain = 0
KSW1 110543Z 15011KT 29/16 A30 RMK A01 T02920159  RH  044%=      5-min Rain = 0
KSW1 110544Z 15011KT 29/16 A30 RMK A01 T02920159  RH  044%=      5-min Rain = 0
KSW1 110545Z 15011KT 29/16 A30 RMK A01 T02920159  RH  044%=      5-min Rain = 0
KSW1 110546Z 15012KT 29/16 A30 RMK A01 T02920159  RH  044%=      5-min Rain = 0
KSW1 110547Z 15012KT 29/16 A30 RMK A01 T02920159  RH  045%=      5-min Rain = 0
KSW1 110548Z 15013KT 29/16 A30 RMK A01 T02910159  RH  045%=      5-min Rain = 0
KSW1 110549Z 15012KT 29/16 A30 RMK A01 T02910159  RH  045%=      5-min Rain = 0
KSW1 110550Z 15012KT 29/16 A30 RMK A01 T02910159  RH  045%=      5-min Rain = 0
KSW1 110551Z 15010KT 29/16 A30 RMK A01 T02910159  RH  045%=      5-min Rain = 0
KSW1 110552Z 15010KT 29/16 A30 RMK A01 T02910159  RH  045%=      5-min Rain = 0
KSW1 110553Z 15010KT 29/16 A30 RMK A01 T02900159  RH  045%=      5-min Rain = 0
KSW1 110554Z 15011KT 29/16 A30 RMK A01 T02890159  RH  045%=      5-min Rain = 0
KSW1 110555Z 15011KT 29/16 A30 RMK A01 T02890159  RH  045%=      5-min Rain = 0
KSW1 110556Z 15011KT 29/16 A30 RMK A01 T02890159  RH  045%=      5-min Rain = 0
KSW1 110557Z 16011KT 29/16 A30 RMK A01 T02890159  RH  045%=      5-min Rain = 0
KSW1 110558Z 16012KT 29/16 A30 RMK A01 T02900159  RH  045%=      5-min Rain = 0
KSW1 110559Z 16012KT 29/16 A30 RMK A01 T02890159  RH  045%=      5-min Rain = 0
KSW1 110600Z 16011KT 29/16 A30 RMK A01 T02890159  RH  045%=      5-min Rain = 0
KSW1 110601Z 15011KT 29/16 A30 RMK A01 T02890159  RH  045%=      5-min Rain = 0
KSW1 110602Z 15009KT 29/16 A30 RMK A01 T02890159  RH  045%=      5-min Rain = 0
KSW1 110603Z 16011KT 29/16 A30 RMK A01 T02890159  RH  045%=      5-min Rain = 0
KSW1 110604Z 16011KT 29/16 A30 RMK A01 T02890159  RH  045%=      5-min Rain = 0
KSW1 110605Z 15009KT 29/16 A30 RMK A01 T02890159  RH  045%=      5-min Rain = 0
KSW1 110606Z 16011KT 29/16 A30 RMK A01 T02880159  RH  046%=      5-min Rain = 0
KSW1 110607Z 15010KT 29/16 A30 RMK A01 T02880159  RH  046%=      5-min Rain = 0
KSW1 110608Z 15011KT 29/16 A30 RMK A01 T02880159  RH  046%=      5-min Rain = 0
KSW1 110609Z 16010G15KT 29/16 A30 RMK A01 T02880159  RH  046%=      5-min Rain = 0
KSW1 110610Z 16011KT 29/16 A30 RMK A01 T02880159  RH  045%=      5-min Rain = 0
KSW1 110611Z 15011KT 29/16 A30 RMK A01 T02880159  RH  045%=      5-min Rain = 0
KSW1 110612Z 15009KT 29/16 A30 RMK A01 T02880159  RH  045%=      5-min Rain = 0
KSW1 110613Z 16011KT 29/16 A30 RMK A01 T02880159  RH  046%=      5-min Rain = 0
KSW1 110614Z 16011KT 29/16 A30 RMK A01 T02880159  RH  046%=      5-min Rain = 0
KSW1 110615Z 15010KT 29/16 A30 RMK A01 T02880159  RH  046%=      5-min Rain = 0
KSW1 110616Z 15010KT 29/16 A30 RMK A01 T02880160  RH  046%=      5-min Rain = 0
KSW1 110617Z 15012KT 29/16 A30 RMK A01 T02880160  RH  046%=      5-min Rain = 0
KSW1 110618Z 16010KT 29/16 A30 RMK A01 T02880160  RH  046%=      5-min Rain = 0
KSW1 110619Z 15009KT 29/16 A30 RMK A01 T02880160  RH  046%=      5-min Rain = 0
KSW1 110620Z 15010KT 29/16 A30 RMK A01 T02870159  RH  046%=      5-min Rain = 0
KSW1 110621Z 15010KT 29/16 A30 RMK A01 T02870160  RH  046%=      5-min Rain = 0
KSW1 110622Z 16011KT 29/16 A30 RMK A01 T02860159  RH  046%=      5-min Rain = 0
KSW1 110623Z 15011KT 29/16 A30 RMK A01 T02860159  RH  046%=      5-min Rain = 0
KSW1 110624Z 15011KT 29/16 A30 RMK A01 T02870159  RH  046%=      5-min Rain = 0
KSW1 110625Z 15010KT 29/16 A30 RMK A01 T02870160  RH  046%=      5-min Rain = 0
KSW1 110626Z 15011G16KT 29/16 A30 RMK A01 T02870160  RH  046%=      5-min Rain = 0
KSW1 110627Z 16010KT 29/16 A30 RMK A01 T02870160  RH  046%=      5-min Rain = 0
KSW1 110628Z 16010KT 29/16 A30 RMK A01 T02860160  RH  046%=      5-min Rain = 0
KSW1 110629Z 16011KT 29/16 A30 RMK A01 T02860160  RH  046%=      5-min Rain = 0
KSW1 110630Z 16011KT 29/16 A30 RMK A01 T02860160  RH  046%=      5-min Rain = 0
KSW1 110631Z 16011KT 29/16 A30 RMK A01 T02860160  RH  046%=      5-min Rain = 0
KSW1 110632Z 15011KT 29/16 A30 RMK A01 T02860160  RH  046%=      5-min Rain = 0
KSW1 110633Z 15011KT 29/16 A30 RMK A01 T02860160  RH  046%=      5-min Rain = 0
KSW1 110634Z 15011KT 29/16 A30 RMK A01 T02860160  RH  046%=      5-min Rain = 0
KSW1 110635Z 15012G17KT 29/16 A30 RMK A01 T02860160  RH  046%=      5-min Rain = 0
KSW1 110636Z 15011KT 29/16 A30 RMK A01 T02860160  RH  046%=      5-min Rain = 0
KSW1 110637Z 15012KT 29/16 A30 RMK A01 T02860160  RH  046%=      5-min Rain = 0
KSW1 110638Z 15012KT 29/16 A30 RMK A01 T02860160  RH  046%=      5-min Rain = 0
KSW1 110639Z 15012KT 29/16 A30 RMK A01 T02850159  RH  046%=      5-min Rain = 0
KSW1 110640Z 15012KT 29/16 A30 RMK A01 T02860159  RH  046%=      5-min Rain = 0
KSW1 110641Z 15012KT 29/16 A30 RMK A01 T02860159  RH  046%=      5-min Rain = 0
KSW1 110642Z 15011KT 29/16 A30 RMK A01 T02860160  RH  046%=      5-min Rain = 0
KSW1 110643Z 15012KT 29/16 A30 RMK A01 T02860160  RH  046%=      5-min Rain = 0
KSW1 110644Z 15010KT 29/16 A30 RMK A01 T02860160  RH  046%=      5-min Rain = 0
KSW1 110645Z 15010KT 29/16 A30 RMK A01 T02860160  RH  046%=      5-min Rain = 0
KSW1 110646Z 15011KT 29/16 A30 RMK A01 T02860160  RH  046%=      5-min Rain = 0
KSW1 110647Z 15011KT 29/16 A30 RMK A01 T02860160  RH  047%=      5-min Rain = 0
KSW1 110648Z 15012KT 29/16 A30 RMK A01 T02860160  RH  047%=      5-min Rain = 0
KSW1 110649Z 15010KT 29/16 A30 RMK A01 T02860160  RH  047%=      5-min Rain = 0
KSW1 110650Z 15011KT 29/16 A30 RMK A01 T02850160  RH  047%=      5-min Rain = 0
KSW1 110651Z 16011KT 29/16 A30 RMK A01 T02850160  RH  047%=      5-min Rain = 0
KSW1 110652Z 16011KT 28/16 A30 RMK A01 T02840160  RH  047%=      5-min Rain = 0
KSW1 110653Z 15010KT 28/16 A30 RMK A01 T02840160  RH  047%=      5-min Rain = 0
KSW1 110654Z 15010KT 28/16 A30 RMK A01 T02840161  RH  047%=      5-min Rain = 0
KSW1 110655Z 15011KT 28/16 A30 RMK A01 T02830160  RH  047%=      5-min Rain = 0
KSW1 110656Z 15011KT 28/16 A30 RMK A01 T02830160  RH  047%=      5-min Rain = 0
KSW1 110657Z 15012KT 28/16 A30 RMK A01 T02830160  RH  047%=      5-min Rain = 0
KSW1 110658Z 15010KT 28/16 A30 RMK A01 T02830160  RH  047%=      5-min Rain = 0
KSW1 110659Z 15008KT 28/16 A30 RMK A01 T02830160  RH  047%=      5-min Rain = 0
KSW1 110700Z 15011KT 28/16 A30 RMK A01 T02830161  RH  047%=      5-min Rain = 0
KSW1 110701Z 15011KT 28/16 A30 RMK A01 T02830161  RH  047%=      5-min Rain = 0
KSW1 110702Z 15011KT 28/16 A30 RMK A01 T02830160  RH  047%=      5-min Rain = 0
KSW1 110703Z 16010KT 28/16 A30 RMK A01 T02830161  RH  047%=      5-min Rain = 0
KSW1 110704Z 16009KT 28/16 A30 RMK A01 T02830161  RH  047%=      5-min Rain = 0
KSW1 110705Z 15010KT 28/16 A30 RMK A01 T02830161  RH  048%=      5-min Rain = 0
KSW1 110706Z 15011KT 28/16 A30 RMK A01 T02820161  RH  048%=      5-min Rain = 0
KSW1 110707Z 15011KT 28/16 A30 RMK A01 T02820161  RH  048%=      5-min Rain = 0
KSW1 110708Z 15010KT 28/16 A30 RMK A01 T02820161  RH  048%=      5-min Rain = 0
KSW1 110709Z 16012KT 28/16 A30 RMK A01 T02820161  RH  048%=      5-min Rain = 0
KSW1 110710Z 15012KT 28/16 A30 RMK A01 T02830161  RH  048%=      5-min Rain = 0
KSW1 110711Z 15011KT 28/16 A30 RMK A01 T02830161  RH  047%=      5-min Rain = 0
KSW1 110712Z 15010KT 28/16 A30 RMK A01 T02830161  RH  047%=      5-min Rain = 0
KSW1 110713Z 16012KT 28/16 A30 RMK A01 T02830161  RH  047%=      5-min Rain = 0
KSW1 110714Z 16012KT 28/16 A30 RMK A01 T02830161  RH  048%=      5-min Rain = 0
KSW1 110715Z 15010KT 28/16 A30 RMK A01 T02830161  RH  047%=      5-min Rain = 0
KSW1 110716Z 15009KT 28/16 A30 RMK A01 T02830161  RH  047%=      5-min Rain = 0
KSW1 110717Z 16010G15KT 28/16 A30 RMK A01 T02830161  RH  048%=      5-min Rain = 0
KSW1 110718Z 15009KT 28/16 A30 RMK A01 T02820161  RH  048%=      5-min Rain = 0
KSW1 110719Z 16012KT 28/16 A30 RMK A01 T02820161  RH  048%=      5-min Rain = 0
KSW1 110720Z 16012KT 28/16 A30 RMK A01 T02820161  RH  048%=      5-min Rain = 0
KSW1 110721Z 16013KT 28/16 A30 RMK A01 T02820161  RH  048%=      5-min Rain = 0
KSW1 110722Z 16011KT 28/16 A30 RMK A01 T02820161  RH  048%=      5-min Rain = 0
KSW1 110723Z 16010KT 28/16 A30 RMK A01 T02810161  RH  048%=      5-min Rain = 0
KSW1 110724Z 15011KT 28/16 A30 RMK A01 T02810161  RH  048%=      5-min Rain = 0
KSW1 110725Z 16011KT 28/16 A30 RMK A01 T02800161  RH  048%=      5-min Rain = 0
KSW1 110726Z 16011KT 28/16 A30 RMK A01 T02800162  RH  049%=      5-min Rain = 0
KSW1 110727Z 16011KT 28/16 A30 RMK A01 T02800162  RH  049%=      5-min Rain = 0
KSW1 110728Z 16010KT 28/16 A30 RMK A01 T02800162  RH  049%=      5-min Rain = 0
KSW1 110729Z 16010KT 28/16 A30 RMK A01 T02800162  RH  049%=      5-min Rain = 0
KSW1 110730Z 16011KT 28/16 A30 RMK A01 T02800162  RH  049%=      5-min Rain = 0
KSW1 110731Z 16009KT 28/16 A30 RMK A01 T02800162  RH  049%=      5-min Rain = 0
KSW1 110732Z 16011KT 28/16 A30 RMK A01 T02790162  RH  049%=      5-min Rain = 0
KSW1 110733Z 16011KT 28/16 A30 RMK A01 T02790162  RH  049%=      5-min Rain = 0
KSW1 110734Z 15010KT 28/16 A30 RMK A01 T02790162  RH  049%=      5-min Rain = 0
KSW1 110735Z 16010KT 28/16 A30 RMK A01 T02790162  RH  049%=      5-min Rain = 0
KSW1 110736Z 16009KT 28/16 A30 RMK A01 T02780162  RH  049%=      5-min Rain = 0
KSW1 110737Z 16010KT 28/16 A30 RMK A01 T02780162  RH  049%=      5-min Rain = 0
KSW1 110738Z 16011KT 28/16 A30 RMK A01 T02780162  RH  049%=      5-min Rain = 0
KSW1 110739Z 16009KT 28/16 A30 RMK A01 T02770162  RH  049%=      5-min Rain = 0
KSW1 110740Z 16011KT 28/16 A30 RMK A01 T02770162  RH  050%=      5-min Rain = 0
KSW1 110741Z 16011KT 28/16 A30 RMK A01 T02760162  RH  050%=      5-min Rain = 0
KSW1 110742Z 15010KT 28/16 A30 RMK A01 T02760161  RH  050%=      5-min Rain = 0
KSW1 110743Z 16011KT 28/16 A30 RMK A01 T02760162  RH  050%=      5-min Rain = 0
KSW1 110744Z 16010KT 28/16 A30 RMK A01 T02770162  RH  050%=      5-min Rain = 0
KSW1 110745Z 16010KT 28/16 A30 RMK A01 T02760161  RH  050%=      5-min Rain = 0
KSW1 110746Z 16009KT 28/16 A30 RMK A01 T02770162  RH  050%=      5-min Rain = 0
KSW1 110747Z 16010KT 28/16 A30 RMK A01 T02770162  RH  050%=      5-min Rain = 0
KSW1 110748Z 16012KT 28/16 A30 RMK A01 T02760162  RH  050%=      5-min Rain = 0
KSW1 110749Z 16011KT 28/16 A30 RMK A01 T02770162  RH  050%=      5-min Rain = 0
KSW1 110750Z 16011KT 28/16 A30 RMK A01 T02780162  RH  049%=      5-min Rain = 0
KSW1 110751Z 16010KT 28/16 A30 RMK A01 T02780162  RH  049%=      5-min Rain = 0
KSW1 110752Z 16011KT 28/16 A30 RMK A01 T02780162  RH  049%=      5-min Rain = 0
KSW1 110753Z 16011KT 28/16 A30 RMK A01 T02780163  RH  049%=      5-min Rain = 0
KSW1 110754Z 16012KT 28/16 A30 RMK A01 T02780162  RH  049%=      5-min Rain = 0
KSW1 110755Z 16011KT 28/16 A30 RMK A01 T02790162  RH  049%=      5-min Rain = 0
KSW1 110756Z 16011KT 28/16 A30 RMK A01 T02790163  RH  049%=      5-min Rain = 0
KSW1 110757Z 16012KT 28/16 A30 RMK A01 T02790163  RH  049%=      5-min Rain = 0
KSW1 110758Z 16012KT 28/16 A30 RMK A01 T02790163  RH  049%=      5-min Rain = 0
KSW1 110759Z 16011KT 28/16 A30 RMK A01 T02790163  RH  049%=      5-min Rain = 0
KSW1 110800Z 16011KT 28/16 A30 RMK A01 T02790163  RH  049%=      5-min Rain = 0
KSW1 110801Z 16011KT 28/16 A30 RMK A01 T02790163  RH  049%=      5-min Rain = 0
KSW1 110802Z 16010KT 28/16 A30 RMK A01 T02790163  RH  049%=      5-min Rain = 0
KSW1 110803Z 16012KT 28/16 A30 RMK A01 T02780163  RH  049%=      5-min Rain = 0
KSW1 110804Z 16012G17KT 28/16 A30 RMK A01 T02780163  RH  049%=      5-min Rain = 0
KSW1 110805Z 16012KT 28/16 A30 RMK A01 T02780163  RH  049%=      5-min Rain = 0
KSW1 110806Z 16011KT 28/16 A30 RMK A01 T02790163  RH  049%=      5-min Rain = 0
KSW1 110807Z 16011KT 28/16 A30 RMK A01 T02790163  RH  049%=      5-min Rain = 0
KSW1 110808Z 15009KT 28/16 A30 RMK A01 T02780163  RH  049%=      5-min Rain = 0
KSW1 110809Z 16011KT 28/16 A30 RMK A01 T02780163  RH  050%=      5-min Rain = 0
KSW1 110810Z 16011KT 28/16 A30 RMK A01 T02770163  RH  050%=      5-min Rain = 0
KSW1 110811Z 16010KT 28/16 A30 RMK A01 T02770163  RH  050%=      5-min Rain = 0
KSW1 110812Z 16011KT 28/16 A30 RMK A01 T02770163  RH  050%=      5-min Rain = 0
KSW1 110813Z 16010KT 28/16 A30 RMK A01 T02760163  RH  050%=      5-min Rain = 0
KSW1 110814Z 16010G15KT 28/16 A30 RMK A01 T02760163  RH  050%=      5-min Rain = 0
KSW1 110815Z 16012KT 28/16 A30 RMK A01 T02760163  RH  050%=      5-min Rain = 0
KSW1 110816Z 16012KT 28/16 A30 RMK A01 T02760163  RH  050%=      5-min Rain = 0
KSW1 110817Z 16012KT 28/16 A30 RMK A01 T02770163  RH  050%=      5-min Rain = 0
KSW1 110818Z 16010KT 28/16 A30 RMK A01 T02780163  RH  050%=      5-min Rain = 0
KSW1 110819Z 16012KT 28/16 A30 RMK A01 T02770163  RH  050%=      5-min Rain = 0
KSW1 110820Z 16012KT 28/16 A30 RMK A01 T02770163  RH  050%=      5-min Rain = 0
KSW1 110821Z 16011KT 28/16 A30 RMK A01 T02780163  RH  050%=      5-min Rain = 0
KSW1 110822Z 17012KT 28/16 A30 RMK A01 T02780163  RH  050%=      5-min Rain = 0
KSW1 110823Z 17013KT 28/16 A30 RMK A01 T02790163  RH  049%=      5-min Rain = 0
KSW1 110824Z 16011KT 28/16 A30 RMK A01 T02790163  RH  049%=      5-min Rain = 0
KSW1 110825Z 16009KT 28/16 A30 RMK A01 T02790164  RH  049%=      5-min Rain = 0
KSW1 110826Z 17010KT 28/16 A30 RMK A01 T02790163  RH  049%=      5-min Rain = 0
KSW1 110827Z 16012KT 28/16 A30 RMK A01 T02790164  RH  050%=      5-min Rain = 0
KSW1 110828Z 17011KT 28/16 A30 RMK A01 T02790164  RH  050%=      5-min Rain = 0
KSW1 110829Z 17011KT 28/16 A30 RMK A01 T02790164  RH  050%=      5-min Rain = 0
KSW1 110830Z 16010KT 28/16 A30 RMK A01 T02790164  RH  049%=      5-min Rain = 0
KSW1 110831Z 17010KT 28/16 A30 RMK A01 T02790164  RH  049%=      5-min Rain = 0
KSW1 110832Z 17010KT 28/16 A30 RMK A01 T02790164  RH  050%=      5-min Rain = 0
KSW1 110833Z 16011KT 28/16 A30 RMK A01 T02780164  RH  050%=      5-min Rain = 0
KSW1 110834Z 16011KT 28/16 A30 RMK A01 T02780164  RH  050%=      5-min Rain = 0
KSW1 110835Z 17011KT 28/16 A30 RMK A01 T02790164  RH  050%=      5-min Rain = 0
KSW1 110836Z 17010KT 28/16 A30 RMK A01 T02780164  RH  050%=      5-min Rain = 0
KSW1 110837Z 16012KT 28/16 A30 RMK A01 T02770164  RH  050%=      5-min Rain = 0
KSW1 110838Z 16014KT 28/16 A30 RMK A01 T02770164  RH  050%=      5-min Rain = 0
KSW1 110839Z 17013KT 28/16 A30 RMK A01 T02780164  RH  050%=      5-min Rain = 0
KSW1 110840Z 16011KT 28/16 A30 RMK A01 T02780164  RH  050%=      5-min Rain = 0
KSW1 110841Z 17013KT 28/17 A30 RMK A01 T02780165  RH  050%=      5-min Rain = 0
KSW1 110842Z 16012KT 28/17 A30 RMK A01 T02780165  RH  050%=      5-min Rain = 0
KSW1 110843Z 16012KT 28/17 A30 RMK A01 T02780165  RH  050%=      5-min Rain = 0
KSW1 110844Z 16013KT 28/17 A30 RMK A01 T02770165  RH  050%=      5-min Rain = 0
KSW1 110845Z 17012KT 28/17 A30 RMK A01 T02770165  RH  050%=      5-min Rain = 0
KSW1 110846Z 16012KT 28/17 A30 RMK A01 T02770165  RH  051%=      5-min Rain = 0
KSW1 110847Z 16012KT 28/17 A30 RMK A01 T02770165  RH  051%=      5-min Rain = 0
KSW1 110848Z 16011G16KT 28/17 A30 RMK A01 T02760165  RH  051%=      5-min Rain = 0
KSW1 110849Z 17011KT 28/17 A30 RMK A01 T02770165  RH  051%=      5-min Rain = 0
KSW1 110850Z 17013KT 28/17 A30 RMK A01 T02770165  RH  051%=      5-min Rain = 0
KSW1 110851Z 16012KT 28/17 A30 RMK A01 T02760165  RH  051%=      5-min Rain = 0
KSW1 110852Z 17011KT 28/17 A30 RMK A01 T02770165  RH  051%=      5-min Rain = 0
KSW1 110853Z 16010KT 28/17 A30 RMK A01 T02760165  RH  051%=      5-min Rain = 0
KSW1 110854Z 17012KT 28/17 A30 RMK A01 T02760166  RH  051%=      5-min Rain = 0
KSW1 110855Z 17010KT 28/17 A30 RMK A01 T02760166  RH  051%=      5-min Rain = 0
KSW1 110856Z 17011KT 28/17 A30 RMK A01 T02750165  RH  051%=      5-min Rain = 0
KSW1 110857Z 17014KT 28/17 A30 RMK A01 T02750166  RH  051%=      5-min Rain = 0
KSW1 110858Z 17013KT 28/17 A30 RMK A01 T02750165  RH  051%=      5-min Rain = 0
KSW1 110859Z 17011KT 28/17 A30 RMK A01 T02760166  RH  051%=      5-min Rain = 0
KSW1 110900Z 17010KT 28/17 A30 RMK A01 T02760166  RH  051%=      5-min Rain = 0
KSW1 110901Z 17011KT 28/17 A30 RMK A01 T02750166  RH  051%=      5-min Rain = 0
KSW1 110902Z 17011KT 28/17 A30 RMK A01 T02750166  RH  051%=      5-min Rain = 0
KSW1 110903Z 17011KT 28/17 A30 RMK A01 T02750166  RH  051%=      5-min Rain = 0
KSW1 110904Z 17010KT 27/17 A30 RMK A01 T02740166  RH  052%=      5-min Rain = 0
KSW1 110905Z 17012KT 27/17 A30 RMK A01 T02740166  RH  052%=      5-min Rain = 0
KSW1 110906Z 17013KT 27/17 A30 RMK A01 T02740166  RH  052%=      5-min Rain = 0
KSW1 110907Z 17010KT 27/17 A30 RMK A01 T02740166  RH  052%=      5-min Rain = 0
KSW1 110908Z 17011KT 27/17 A30 RMK A01 T02740166  RH  052%=      5-min Rain = 0
KSW1 110909Z 17012KT 27/17 A30 RMK A01 T02740167  RH  052%=      5-min Rain = 0
KSW1 110910Z 17010KT 27/17 A30 RMK A01 T02740167  RH  052%=      5-min Rain = 0
KSW1 110911Z 17011KT 27/17 A30 RMK A01 T02740167  RH  052%=      5-min Rain = 0
KSW1 110912Z 17012KT 27/17 A30 RMK A01 T02740167  RH  052%=      5-min Rain = 0
KSW1 110913Z 17013KT 27/17 A30 RMK A01 T02740167  RH  052%=      5-min Rain = 0
KSW1 110914Z 17012KT 27/17 A30 RMK A01 T02740167  RH  052%=      5-min Rain = 0
KSW1 110915Z 17012KT 27/17 A30 RMK A01 T02740167  RH  052%=      5-min Rain = 0
KSW1 110916Z 18012KT 27/17 A30 RMK A01 T02740167  RH  052%=      5-min Rain = 0
KSW1 110917Z 17012KT 27/17 A30 RMK A01 T02740167  RH  052%=      5-min Rain = 0
KSW1 110918Z 17012KT 27/17 A30 RMK A01 T02740168  RH  052%=      5-min Rain = 0
KSW1 110919Z 17013KT 27/17 A30 RMK A01 T02740168  RH  052%=      5-min Rain = 0
KSW1 110920Z 17011KT 27/17 A30 RMK A01 T02730168  RH  052%=      5-min Rain = 0
KSW1 110921Z 17010KT 27/17 A30 RMK A01 T02730168  RH  053%=      5-min Rain = 0
KSW1 110922Z 17013KT 27/17 A30 RMK A01 T02720168  RH  053%=      5-min Rain = 0
KSW1 110923Z 17011KT 27/17 A30 RMK A01 T02720168  RH  053%=      5-min Rain = 0
KSW1 110924Z 17011KT 27/17 A30 RMK A01 T02730169  RH  053%=      5-min Rain = 0
KSW1 110925Z 17013KT 27/17 A30 RMK A01 T02720169  RH  053%=      5-min Rain = 0
KSW1 110926Z 17011KT 27/17 A30 RMK A01 T02720169  RH  053%=      5-min Rain = 0
KSW1 110927Z 17011KT 27/17 A30 RMK A01 T02720169  RH  053%=      5-min Rain = 0
KSW1 110928Z 17011KT 27/17 A30 RMK A01 T02710169  RH  054%=      5-min Rain = 0
KSW1 110929Z 17010KT 27/17 A30 RMK A01 T02710169  RH  054%=      5-min Rain = 0
KSW1 110930Z 17010KT 27/17 A30 RMK A01 T02710169  RH  054%=      5-min Rain = 0
KSW1 110931Z 17010KT 27/17 A30 RMK A01 T02710169  RH  054%=      5-min Rain = 0
KSW1 110932Z 17010KT 27/17 A30 RMK A01 T02700169  RH  054%=      5-min Rain = 0
KSW1 110933Z 17010KT 27/17 A30 RMK A01 T02700170  RH  054%=      5-min Rain = 0
KSW1 110934Z 17010KT 27/17 A30 RMK A01 T02700170  RH  054%=      5-min Rain = 0
KSW1 110935Z 17011KT 27/17 A30 RMK A01 T02700170  RH  054%=      5-min Rain = 0
KSW1 110936Z 16011KT 27/17 A30 RMK A01 T02700170  RH  054%=      5-min Rain = 0
KSW1 110937Z 17011KT 27/17 A30 RMK A01 T02700171  RH  055%=      5-min Rain = 0
KSW1 110938Z 17011KT 27/17 A30 RMK A01 T02700171  RH  055%=      5-min Rain = 0
KSW1 110939Z 17010KT 27/17 A30 RMK A01 T02700171  RH  055%=      5-min Rain = 0
KSW1 110940Z 17009KT 27/17 A30 RMK A01 T02690171  RH  055%=      5-min Rain = 0
KSW1 110941Z 16010KT 27/17 A30 RMK A01 T02690171  RH  055%=      5-min Rain = 0
KSW1 110942Z 16010KT 27/17 A30 RMK A01 T02690171  RH  055%=      5-min Rain = 0
KSW1 110943Z 17009KT 27/17 A30 RMK A01 T02690172  RH  055%=      5-min Rain = 0
KSW1 110944Z 17010KT 27/17 A30 RMK A01 T02690172  RH  055%=      5-min Rain = 0
KSW1 110945Z 16009KT 27/17 A30 RMK A01 T02680172  RH  055%=      5-min Rain = 0
KSW1 110946Z 16008G13KT 27/17 A30 RMK A01 T02680172  RH  056%=      5-min Rain = 0
KSW1 110947Z 16009KT 27/17 A30 RMK A01 T02670172  RH  056%=      5-min Rain = 0
KSW1 110948Z 17009KT 27/17 A30 RMK A01 T02670172  RH  056%=      5-min Rain = 0
KSW1 110949Z 16008KT 27/17 A30 RMK A01 T02670172  RH  056%=      5-min Rain = 0
KSW1 110950Z 16008KT 27/17 A30 RMK A01 T02660172  RH  056%=      5-min Rain = 0
KSW1 110951Z 16010KT 27/17 A30 RMK A01 T02660173  RH  056%=      5-min Rain = 0
KSW1 110952Z 16008KT 27/17 A30 RMK A01 T02660173  RH  057%=      5-min Rain = 0
KSW1 110953Z 16009KT 27/17 A30 RMK A01 T02660173  RH  057%=      5-min Rain = 0
KSW1 110954Z 16008KT 27/17 A30 RMK A01 T02660173  RH  057%=      5-min Rain = 0
KSW1 110955Z 16008KT 27/17 A30 RMK A01 T02650173  RH  057%=      5-min Rain = 0
KSW1 110956Z 16010KT 27/17 A30 RMK A01 T02650173  RH  057%=      5-min Rain = 0
KSW1 110957Z 16009KT 27/17 A30 RMK A01 T02650174  RH  057%=      5-min Rain = 0
KSW1 110958Z 16010KT 27/17 A30 RMK A01 T02650174  RH  057%=      5-min Rain = 0
KSW1 110959Z 15008KT 27/17 A30 RMK A01 T02650174  RH  057%=      5-min Rain = 0
KSW1 111000Z 16007KT 27/17 A30 RMK A01 T02650174  RH  057%=      5-min Rain = 0
KSW1 111001Z 16008KT 27/17 A30 RMK A01 T02650174  RH  058%=      5-min Rain = 0
KSW1 111002Z 16008KT 26/17 A30 RMK A01 T02640174  RH  058%=      5-min Rain = 0
KSW1 111003Z 16008KT 26/17 A30 RMK A01 T02630174  RH  058%=      5-min Rain = 0
KSW1 111004Z 17008KT 26/18 A30 RMK A01 T02630175  RH  058%=      5-min Rain = 0
KSW1 111005Z 17009KT 26/18 A30 RMK A01 T02630175  RH  058%=      5-min Rain = 0
KSW1 111006Z 17009KT 26/18 A30 RMK A01 T02630175  RH  058%=      5-min Rain = 0
KSW1 111007Z 17009KT 26/18 A30 RMK A01 T02640176  RH  058%=      5-min Rain = 0
KSW1 111008Z 17008KT 26/18 A30 RMK A01 T02640175  RH  058%=      5-min Rain = 0
KSW1 111009Z 17008KT 26/18 A30 RMK A01 T02640176  RH  058%=      5-min Rain = 0
KSW1 111010Z 17007KT 26/18 A3001 RMK A01 T02640176  RH  058%=      5-min Rain = 0
KSW1 111011Z 17007KT 26/18 A3001 RMK A01 T02640176  RH  058%=      5-min Rain = 0
KSW1 111012Z 17008KT 26/18 A3001 RMK A01 T02630176  RH  059%=      5-min Rain = 0
KSW1 111013Z 17008KT 26/18 A3001 RMK A01 T02630176  RH  059%=      5-min Rain = 0
KSW1 111014Z 17008KT 26/18 A3001 RMK A01 T02630176  RH  059%=      5-min Rain = 0
KSW1 111015Z 17007KT 26/18 A3001 RMK A01 T02630176  RH  059%=      5-min Rain = 0
KSW1 111016Z 17008KT 26/18 A3001 RMK A01 T02630177  RH  059%=      5-min Rain = 0
KSW1 111017Z 17009KT 26/18 A3001 RMK A01 T02630177  RH  059%=      5-min Rain = 0
KSW1 111018Z 17007KT 26/18 A3001 RMK A01 T02630177  RH  059%=      5-min Rain = 0
KSW1 111019Z 17008KT 26/18 A3001 RMK A01 T02630177  RH  059%=      5-min Rain = 0
KSW1 111020Z 17009KT 26/18 A3001 RMK A01 T02630177  RH  059%=      5-min Rain = 0
KSW1 111021Z 17007KT 26/18 A3001 RMK A01 T02630177  RH  059%=      5-min Rain = 0
KSW1 111022Z 17006KT 26/18 A3001 RMK A01 T02630177  RH  059%=      5-min Rain = 0
KSW1 111023Z 17007KT 26/18 A3001 RMK A01 T02630178  RH  059%=      5-min Rain = 0
KSW1 111024Z 17008KT 26/18 A3001 RMK A01 T02620178  RH  059%=      5-min Rain = 0
KSW1 111025Z 16008KT 26/18 A3001 RMK A01 T02620178  RH  060%=      5-min Rain = 0
KSW1 111026Z 16009KT 26/18 A3001 RMK A01 T02620178  RH  060%=      5-min Rain = 0
KSW1 111027Z 16009KT 26/18 A3001 RMK A01 T02620178  RH  060%=      5-min Rain = 0
KSW1 111028Z 16008KT 26/18 A3001 RMK A01 T02620178  RH  060%=      5-min Rain = 0
KSW1 111029Z 16006KT 26/18 A3001 RMK A01 T02620178  RH  060%=      5-min Rain = 0
KSW1 111030Z 16009KT 26/18 A3001 RMK A01 T02620178  RH  060%=      5-min Rain = 0
KSW1 111031Z 16009KT 26/18 A3001 RMK A01 T02610178  RH  060%=      5-min Rain = 0
KSW1 111032Z 16009KT 26/18 A3001 RMK A01 T02610178  RH  060%=      5-min Rain = 0
KSW1 111033Z 16008KT 26/18 A3001 RMK A01 T02610178  RH  060%=      5-min Rain = 0
KSW1 111034Z 16008KT 26/18 A3001 RMK A01 T02610178  RH  060%=      5-min Rain = 0
KSW1 111035Z 16008KT 26/18 A3001 RMK A01 T02610178  RH  060%=      5-min Rain = 0
KSW1 111036Z 16008KT 26/18 A3001 RMK A01 T02600178  RH  061%=      5-min Rain = 0
KSW1 111037Z 16008KT 26/18 A3001 RMK A01 T02600178  RH  061%=      5-min Rain = 0
KSW1 111038Z 16009KT 26/18 A3001 RMK A01 T02590178  RH  061%=      5-min Rain = 0
KSW1 111039Z 16009KT 26/18 A3001 RMK A01 T02590179  RH  061%=      5-min Rain = 0
KSW1 111040Z 16008KT 26/18 A3001 RMK A01 T02590179  RH  061%=      5-min Rain = 0
KSW1 111041Z 16008KT 26/18 A3001 RMK A01 T02590179  RH  061%=      5-min Rain = 0
KSW1 111042Z 16009KT 26/18 A3001 RMK A01 T02590179  RH  061%=      5-min Rain = 0
KSW1 111043Z 16008KT 26/18 A3001 RMK A01 T02590179  RH  061%=      5-min Rain = 0
KSW1 111044Z 16009KT 26/18 A3001 RMK A01 T02580179  RH  062%=      5-min Rain = 0
KSW1 111045Z 16009KT 26/18 A3001 RMK A01 T02580179  RH  062%=      5-min Rain = 0
KSW1 111046Z 16008KT 26/18 A3001 RMK A01 T02580180  RH  062%=      5-min Rain = 0
KSW1 111047Z 16007KT 26/18 A3001 RMK A01 T02580179  RH  062%=      5-min Rain = 0
KSW1 111048Z 16008KT 26/18 A3001 RMK A01 T02580180  RH  062%=      5-min Rain = 0
KSW1 111049Z 16007KT 26/18 A3001 RMK A01 T02580180  RH  062%=      5-min Rain = 0
KSW1 111050Z 16008KT 26/18 A3001 RMK A01 T02570180  RH  062%=      5-min Rain = 0
KSW1 111051Z 16008KT 26/18 A3001 RMK A01 T02570180  RH  062%=      5-min Rain = 0
KSW1 111052Z 16008KT 26/18 A3001 RMK A01 T02560180  RH  063%=      5-min Rain = 0
KSW1 111053Z 16008KT 26/18 A3001 RMK A01 T02570180  RH  063%=      5-min Rain = 0
KSW1 111054Z 16008KT 26/18 A3001 RMK A01 T02570180  RH  063%=      5-min Rain = 0
KSW1 111055Z 16009KT 26/18 A3001 RMK A01 T02570180  RH  063%=      5-min Rain = 0
KSW1 111056Z 16008KT 26/18 A3001 RMK A01 T02570180  RH  063%=      5-min Rain = 0
KSW1 111057Z 16009KT 26/18 A3001 RMK A01 T02560180  RH  063%=      5-min Rain = 0
KSW1 111058Z 16009KT 26/18 A3001 RMK A01 T02560180  RH  063%=      5-min Rain = 0
KSW1 111059Z 16010KT 26/18 A3001 RMK A01 T02560180  RH  063%=      5-min Rain = 0
KSW1 111100Z 16009KT 26/18 A3001 RMK A01 T02560181  RH  063%=      5-min Rain = 0
KSW1 111101Z 16009KT 26/18 A3001 RMK A01 T02560181  RH  063%=      5-min Rain = 0
KSW1 111102Z 16008KT 26/18 A3001 RMK A01 T02560181  RH  063%=      5-min Rain = 0
KSW1 111103Z 16008KT 26/18 A3001 RMK A01 T02560181  RH  063%=      5-min Rain = 0
KSW1 111104Z 16009KT 26/18 A3001 RMK A01 T02550181  RH  063%=      5-min Rain = 0
KSW1 111105Z 16009KT 26/18 A3001 RMK A01 T02550181  RH  063%=      5-min Rain = 0
KSW1 111106Z 15009KT 26/18 A3001 RMK A01 T02550181  RH  064%=      5-min Rain = 0
KSW1 111107Z 16009KT 25/18 A3001 RMK A01 T02540181  RH  064%=      5-min Rain = 0
KSW1 111108Z 16010KT 25/18 A3001 RMK A01 T02540181  RH  064%=      5-min Rain = 0
KSW1 111109Z 16010KT 25/18 A3001 RMK A01 T02540181  RH  064%=      5-min Rain = 0
KSW1 111110Z 16010KT 25/18 A3001 RMK A01 T02540181  RH  064%=      5-min Rain = 0
KSW1 111111Z 15010KT 25/18 A3001 RMK A01 T02540181  RH  064%=      5-min Rain = 0
KSW1 111112Z 16010KT 25/18 A3001 RMK A01 T02540181  RH  064%=      5-min Rain = 0
KSW1 111113Z 16009KT 25/18 A3001 RMK A01 T02540181  RH  064%=      5-min Rain = 0
KSW1 111114Z 16010KT 25/18 A3001 RMK A01 T02540182  RH  064%=      5-min Rain = 0
KSW1 111115Z 16010KT 25/18 A3001 RMK A01 T02540182  RH  064%=      5-min Rain = 0
KSW1 111116Z 16010KT 25/18 A3001 RMK A01 T02540182  RH  064%=      5-min Rain = 0
KSW1 111117Z 16009KT 25/18 A3001 RMK A01 T02540182  RH  064%=      5-min Rain = 0
KSW1 111118Z 16010KT 25/18 A3001 RMK A01 T02540182  RH  064%=      5-min Rain = 0
KSW1 111119Z 16010KT 25/18 A3001 RMK A01 T02540182  RH  064%=      5-min Rain = 0
KSW1 111120Z 16011KT 25/18 A3001 RMK A01 T02540182  RH  065%=      5-min Rain = 0
KSW1 111121Z 16010KT 25/18 A3001 RMK A01 T02540182  RH  065%=      5-min Rain = 0
KSW1 111122Z 16011KT 25/18 A3001 RMK A01 T02540182  RH  065%=      5-min Rain = 0
KSW1 111123Z 16010KT 25/18 A3001 RMK A01 T02540182  RH  065%=      5-min Rain = 0
KSW1 111124Z 16010KT 25/18 A3001 RMK A01 T02530182  RH  065%=      5-min Rain = 0
KSW1 111125Z 16011KT 25/18 A3001 RMK A01 T02520182  RH  065%=      5-min Rain = 0
KSW1 111126Z 16010KT 25/18 A3001 RMK A01 T02520183  RH  065%=      5-min Rain = 0
KSW1 111127Z 16010KT 25/18 A3001 RMK A01 T02520183  RH  065%=      5-min Rain = 0
KSW1 111128Z 16011KT 25/18 A3001 RMK A01 T02520183  RH  066%=      5-min Rain = 0
KSW1 111129Z 16011KT 25/18 A3001 RMK A01 T02510183  RH  066%=      5-min Rain = 0
KSW1 111130Z 16012KT 25/18 A3001 RMK A01 T02520183  RH  066%=      5-min Rain = 0
KSW1 111131Z 16011KT 25/18 A3001 RMK A01 T02510183  RH  066%=      5-min Rain = 0
KSW1 111132Z 16011KT 25/18 A3001 RMK A01 T02520183  RH  066%=      5-min Rain = 0
KSW1 111133Z 16011KT 25/18 A3001 RMK A01 T02520183  RH  066%=      5-min Rain = 0
KSW1 111134Z 16010KT 25/18 A3001 RMK A01 T02520183  RH  066%=      5-min Rain = 0
KSW1 111135Z 16011KT 25/18 A3002 RMK A01 T02520183  RH  066%=      5-min Rain = 0
KSW1 111136Z 16011KT 25/18 A3002 RMK A01 T02520184  RH  066%=      5-min Rain = 0
KSW1 111137Z 16011KT 25/18 A3002 RMK A01 T02520184  RH  066%=      5-min Rain = 0
KSW1 111138Z 16010KT 25/18 A3002 RMK A01 T02520184  RH  066%=      5-min Rain = 0
KSW1 111139Z 16010KT 25/18 A3002 RMK A01 T02510184  RH  066%=      5-min Rain = 0
KSW1 111140Z 16010KT 25/18 A3002 RMK A01 T02510184  RH  066%=      5-min Rain = 0
KSW1 111141Z 16011KT 25/18 A3002 RMK A01 T02500184  RH  067%=      5-min Rain = 0
KSW1 111142Z 16011KT 25/18 A3002 RMK A01 T02500184  RH  067%=      5-min Rain = 0
KSW1 111143Z 16011KT 25/18 A3002 RMK A01 T02500184  RH  067%=      5-min Rain = 0
KSW1 111144Z 16011KT 25/18 A3002 RMK A01 T02500184  RH  067%=      5-min Rain = 0
KSW1 111145Z 16011KT 25/18 A3002 RMK A01 T02500184  RH  067%=      5-min Rain = 0
KSW1 111146Z 16011KT 25/18 A3002 RMK A01 T02500184  RH  067%=      5-min Rain = 0
KSW1 111147Z 16012KT 25/19 A3002 RMK A01 T02500185  RH  067%=      5-min Rain = 0
KSW1 111148Z 16010KT 25/19 A3002 RMK A01 T02500185  RH  067%=      5-min Rain = 0
KSW1 111149Z 16012KT 25/19 A3002 RMK A01 T02500185  RH  067%=      5-min Rain = 0
KSW1 111150Z 16011KT 25/19 A3002 RMK A01 T02500185  RH  067%=      5-min Rain = 0
KSW1 111151Z 16011KT 25/19 A3002 RMK A01 T02500185  RH  067%=      5-min Rain = 0
KSW1 111152Z 16010KT 25/19 A3002 RMK A01 T02500186  RH  067%=      5-min Rain = 0
KSW1 111153Z 16012KT 25/19 A3002 RMK A01 T02500186  RH  067%=      5-min Rain = 0
KSW1 111154Z 16012KT 25/19 A3002 RMK A01 T02500186  RH  067%=      5-min Rain = 0
KSW1 111155Z 16011KT 25/19 A3002 RMK A01 T02500186  RH  068%=      5-min Rain = 0
KSW1 111156Z 16011KT 25/19 A3003 RMK A01 T02500186  RH  067%=      5-min Rain = 0
KSW1 111157Z 16011KT 25/19 A3003 RMK A01 T02500186  RH  068%=      5-min Rain = 0
KSW1 111158Z 16011KT 25/19 A3003 RMK A01 T02490186  RH  068%=      5-min Rain = 0
KSW1 111159Z 16010KT 25/19 A3003 RMK A01 T02500187  RH  068%=      5-min Rain = 0
KSW1 111200Z 16011KT 25/19 A3003 RMK A01 T02500187  RH  068%=      5-min Rain = 0
KSW1 111201Z 16011KT 25/19 A3003 RMK A01 T02500187  RH  068%=      5-min Rain = 0
KSW1 111202Z 16010KT 25/19 A3003 RMK A01 T02490187  RH  068%=      5-min Rain = 0
KSW1 111203Z 16010KT 25/19 A3003 RMK A01 T02500187  RH  068%=      5-min Rain = 0
KSW1 111204Z 16010KT 25/19 A3003 RMK A01 T02500187  RH  068%=      5-min Rain = 0
KSW1 111205Z 16011KT 25/19 A3003 RMK A01 T02490187  RH  068%=      5-min Rain = 0
KSW1 111206Z 16012KT 25/19 A3003 RMK A01 T02490187  RH  068%=      5-min Rain = 0
KSW1 111207Z 16011KT 25/19 A3003 RMK A01 T02500188  RH  068%=      5-min Rain = 0
KSW1 111208Z 16010KT 25/19 A3003 RMK A01 T02500188  RH  068%=      5-min Rain = 0
KSW1 111209Z 16012KT 25/19 A3003 RMK A01 T02500188  RH  068%=      5-min Rain = 0
KSW1 111210Z 16010KT 25/19 A3003 RMK A01 T02500188  RH  069%=      5-min Rain = 0
KSW1 111211Z 16009KT 25/19 A3003 RMK A01 T02500188  RH  068%=      5-min Rain = 0
KSW1 111212Z 16009KT 25/19 A3003 RMK A01 T02500188  RH  069%=      5-min Rain = 0
KSW1 111213Z 16010KT 25/19 A3003 RMK A01 T02500189  RH  069%=      5-min Rain = 0
KSW1 111214Z 17010KT 25/19 A3004 RMK A01 T02500189  RH  069%=      5-min Rain = 0
KSW1 111215Z 16009KT 25/19 A3004 RMK A01 T02500189  RH  069%=      5-min Rain = 0
KSW1 111216Z 17009KT 25/19 A3004 RMK A01 T02500189  RH  069%=      5-min Rain = 0
KSW1 111217Z 17009G14KT 25/19 A3004 RMK A01 T02500189  RH  069%=      5-min Rain = 0
KSW1 111218Z 17010KT 25/19 A3004 RMK A01 T02500189  RH  069%=      5-min Rain = 0
KSW1 111219Z 17009KT 25/19 A3004 RMK A01 T02510189  RH  069%=      5-min Rain = 0
KSW1 111220Z 16009KT 25/19 A3004 RMK A01 T02510189  RH  069%=      5-min Rain = 0
KSW1 111221Z 17009KT 25/19 A3004 RMK A01 T02500189  RH  069%=      5-min Rain = 0
KSW1 111222Z 17009KT 25/19 A3004 RMK A01 T02510190  RH  069%=      5-min Rain = 0
KSW1 111223Z 17010KT 25/19 A3004 RMK A01 T02500190  RH  069%=      5-min Rain = 0
KSW1 111224Z 16008KT 25/19 A3005 RMK A01 T02510190  RH  069%=      5-min Rain = 0
KSW1 111225Z 16008KT 25/19 A3005 RMK A01 T02500189  RH  069%=      5-min Rain = 0
KSW1 111226Z 17009KT 25/19 A3005 RMK A01 T02510190  RH  069%=      5-min Rain = 0
KSW1 111227Z 16010KT 25/19 A3005 RMK A01 T02510190  RH  069%=      5-min Rain = 0
KSW1 111228Z 17010KT 25/19 A3005 RMK A01 T02510190  RH  069%=      5-min Rain = 0
KSW1 111229Z 17008KT 25/19 A3005 RMK A01 T02510190  RH  069%=      5-min Rain = 0
KSW1 111230Z 17008KT 25/19 A3005 RMK A01 T02510190  RH  069%=      5-min Rain = 0
KSW1 111231Z 17009KT 25/19 A3005 RMK A01 T02510190  RH  069%=      5-min Rain = 0
KSW1 111232Z 17009KT 25/19 A3005 RMK A01 T02510190  RH  069%=      5-min Rain = 0
KSW1 111233Z 17008KT 25/19 A3005 RMK A01 T02510190  RH  069%=      5-min Rain = 0
KSW1 111234Z 17007KT 25/19 A3005 RMK A01 T02510190  RH  069%=      5-min Rain = 0
KSW1 111235Z 17009KT 25/19 A3005 RMK A01 T02510191  RH  069%=      5-min Rain = 0
KSW1 111236Z 17010KT 25/19 A3005 RMK A01 T02510191  RH  069%=      5-min Rain = 0
KSW1 111237Z 17008KT 25/19 A3005 RMK A01 T02520191  RH  069%=      5-min Rain = 0
KSW1 111238Z 17009KT 25/19 A3005 RMK A01 T02530191  RH  069%=      5-min Rain = 0
KSW1 111239Z 17008KT 25/19 A3005 RMK A01 T02520191  RH  069%=      5-min Rain = 0
KSW1 111240Z 17008KT 25/19 A3005 RMK A01 T02520191  RH  069%=      5-min Rain = 0
KSW1 111241Z 17008KT 25/19 A3005 RMK A01 T02530191  RH  069%=      5-min Rain = 0
KSW1 111242Z 17009KT 25/19 A3005 RMK A01 T02530192  RH  069%=      5-min Rain = 0
KSW1 111243Z 17009KT 25/19 A3005 RMK A01 T02530192  RH  069%=      5-min Rain = 0
KSW1 111244Z 17008KT 25/19 A3005 RMK A01 T02530192  RH  069%=      5-min Rain = 0
KSW1 111245Z 17008KT 25/19 A3005 RMK A01 T02540192  RH  069%=      5-min Rain = 0
KSW1 111246Z 17008KT 25/19 A3005 RMK A01 T02540192  RH  069%=      5-min Rain = 0
KSW1 111247Z 17010KT 26/19 A3005 RMK A01 T02550192  RH  068%=      5-min Rain = 0
KSW1 111248Z 17011KT 26/19 A3005 RMK A01 T02550192  RH  068%=      5-min Rain = 0
KSW1 111249Z 17011KT 26/19 A3005 RMK A01 T02550193  RH  068%=      5-min Rain = 0
KSW1 111250Z 17012KT 26/19 A3005 RMK A01 T02560192  RH  068%=      5-min Rain = 0
KSW1 111251Z 17011G16KT 26/19 A3005 RMK A01 T02560193  RH  068%=      5-min Rain = 0
KSW1 111252Z 17012KT 26/19 A3005 RMK A01 T02570193  RH  068%=      5-min Rain = 0
KSW1 111253Z 17011KT 26/19 A3005 RMK A01 T02570193  RH  068%=      5-min Rain = 0
KSW1 111254Z 17010KT 26/19 A3005 RMK A01 T02570193  RH  068%=      5-min Rain = 0
KSW1 111255Z 17011KT 26/19 A3005 RMK A01 T02570193  RH  068%=      5-min Rain = 0
KSW1 111256Z 18010KT 26/19 A3006 RMK A01 T02580193  RH  068%=      5-min Rain = 0
KSW1 111257Z 17011KT 26/19 A3006 RMK A01 T02580193  RH  068%=      5-min Rain = 0
KSW1 111258Z 17011KT 26/19 A3006 RMK A01 T02580193  RH  067%=      5-min Rain = 0
KSW1 111259Z 17011KT 26/19 A3006 RMK A01 T02590194  RH  067%=      5-min Rain = 0
KSW1 111300Z 17010KT 26/19 A3006 RMK A01 T02590194  RH  067%=      5-min Rain = 0
KSW1 111301Z 17012KT 26/19 A3006 RMK A01 T02590194  RH  067%=      5-min Rain = 0
KSW1 111302Z 17013KT 26/19 A3006 RMK A01 T02590194  RH  067%=      5-min Rain = 0
KSW1 111303Z 17011KT 26/19 A3006 RMK A01 T02600194  RH  067%=      5-min Rain = 0
KSW1 111304Z 18011KT 26/19 A3006 RMK A01 T02600194  RH  067%=      5-min Rain = 0
KSW1 111305Z 17009KT 26/19 A3006 RMK A01 T02600194  RH  067%=      5-min Rain = 0
KSW1 111306Z 17009KT 26/20 A3006 RMK A01 T02610195  RH  067%=      5-min Rain = 0
KSW1 111307Z 17011KT 26/19 A3006 RMK A01 T02610194  RH  067%=      5-min Rain = 0
KSW1 111308Z 17013KT 26/19 A3006 RMK A01 T02610194  RH  067%=      5-min Rain = 0
KSW1 111309Z 16012G17KT 26/20 A3006 RMK A01 T02610195  RH  067%=      5-min Rain = 0
KSW1 111310Z 16013KT 26/20 A3006 RMK A01 T02610195  RH  067%=      5-min Rain = 0
KSW1 111311Z 17012KT 26/19 A3006 RMK A01 T02610194  RH  067%=      5-min Rain = 0
KSW1 111312Z 17012KT 26/20 A3006 RMK A01 T02620195  RH  067%=      5-min Rain = 0
KSW1 111313Z 17012KT 26/20 A3006 RMK A01 T02620195  RH  067%=      5-min Rain = 0
KSW1 111314Z 17014KT 26/20 A3006 RMK A01 T02630195  RH  066%=      5-min Rain = 0
KSW1 111315Z 17015KT 26/20 A3006 RMK A01 T02630195  RH  066%=      5-min Rain = 0
KSW1 111316Z 17014KT 26/20 A3006 RMK A01 T02620195  RH  067%=      5-min Rain = 0
KSW1 111317Z 17012KT 26/20 A3006 RMK A01 T02620196  RH  067%=      5-min Rain = 0
KSW1 111318Z 17015KT 26/20 A3006 RMK A01 T02630195  RH  066%=      5-min Rain = 0
KSW1 111319Z 17013KT 26/20 A3006 RMK A01 T02630195  RH  066%=      5-min Rain = 0
KSW1 111320Z 17014KT 26/20 A3006 RMK A01 T02630195  RH  066%=      5-min Rain = 0
KSW1 111321Z 17014KT 26/20 A3006 RMK A01 T02630195  RH  066%=      5-min Rain = 0
KSW1 111322Z 17014KT 26/20 A3006 RMK A01 T02630196  RH  066%=      5-min Rain = 0
KSW1 111323Z 17013KT 26/20 A3006 RMK A01 T02630196  RH  066%=      5-min Rain = 0
KSW1 111324Z 17013KT 26/20 A3006 RMK A01 T02630196  RH  066%=      5-min Rain = 0
KSW1 111325Z 17011KT 26/20 A3006 RMK A01 T02640196  RH  066%=      5-min Rain = 0
KSW1 111326Z 18012KT 27/20 A3006 RMK A01 T02650197  RH  066%=      5-min Rain = 0
KSW1 111327Z 17014KT 27/20 A3006 RMK A01 T02650196  RH  066%=      5-min Rain = 0
KSW1 111328Z 18015KT 27/20 A3006 RMK A01 T02650196  RH  066%=      5-min Rain = 0
KSW1 111329Z 18012KT 27/20 A3006 RMK A01 T02650197  RH  066%=      5-min Rain = 0
KSW1 111330Z 17012KT 27/20 A3006 RMK A01 T02660196  RH  066%=      5-min Rain = 0
KSW1 111331Z 18013KT 27/20 A3006 RMK A01 T02660197  RH  066%=      5-min Rain = 0
KSW1 111332Z 18013KT 27/20 A3006 RMK A01 T02660196  RH  066%=      5-min Rain = 0
KSW1 111333Z 18012KT 27/20 A3006 RMK A01 T02670197  RH  065%=      5-min Rain = 0
KSW1 111334Z 17015KT 27/20 A3006 RMK A01 T02670196  RH  065%=      5-min Rain = 0
KSW1 111335Z 18012G17KT 27/20 A3006 RMK A01 T02670196  RH  065%=      5-min Rain = 0
KSW1 111336Z 17015KT 27/20 A3006 RMK A01 T02670197  RH  065%=      5-min Rain = 0
KSW1 111337Z 18011KT 27/20 A3006 RMK A01 T02660196  RH  065%=      5-min Rain = 0
KSW1 111338Z 18013KT 27/20 A3006 RMK A01 T02670197  RH  065%=      5-min Rain = 0
KSW1 111339Z 18014KT 27/20 A3006 RMK A01 T02680197  RH  065%=      5-min Rain = 0
KSW1 111340Z 18014KT 27/20 A3006 RMK A01 T02680197  RH  065%=      5-min Rain = 0
KSW1 111341Z 18015KT 27/20 A3006 RMK A01 T02680197  RH  065%=      5-min Rain = 0
KSW1 111342Z 19015KT 27/20 A3006 RMK A01 T02680197  RH  065%=      5-min Rain = 0
KSW1 111343Z 19013KT 27/20 A3006 RMK A01 T02680197  RH  065%=      5-min Rain = 0
KSW1 111344Z 18011KT 27/20 A3007 RMK A01 T02690197  RH  065%=      5-min Rain = 0
KSW1 111345Z 18015KT 27/20 A3006 RMK A01 T02710198  RH  064%=      5-min Rain = 0
KSW1 111346Z 18017KT 27/20 A3006 RMK A01 T02710197  RH  064%=      5-min Rain = 0
KSW1 111347Z 18015G20KT 27/20 A3006 RMK A01 T02700197  RH  064%=      5-min Rain = 0
KSW1 111348Z 18016KT 27/20 A3006 RMK A01 T02700197  RH  064%=      5-min Rain = 0
KSW1 111349Z 18017KT 27/20 A3006 RMK A01 T02700197  RH  064%=      5-min Rain = 0
KSW1 111350Z 18019KT 27/20 A3006 RMK A01 T02710197  RH  064%=      5-min Rain = 0
KSW1 111351Z 18017KT 27/20 A3006 RMK A01 T02710197  RH  064%=      5-min Rain = 0
KSW1 111352Z 18017KT 27/20 A3006 RMK A01 T02710197  RH  064%=      5-min Rain = 0
KSW1 111353Z 19018KT 27/20 A3006 RMK A01 T02720197  RH  063%=      5-min Rain = 0
KSW1 111354Z 18013KT 27/20 A3006 RMK A01 T02720197  RH  064%=      5-min Rain = 0
KSW1 111355Z 18015G20KT 27/20 A3006 RMK A01 T02730197  RH  063%=      5-min Rain = 0
KSW1 111356Z 18016KT 27/20 A3006 RMK A01 T02740197  RH  063%=      5-min Rain = 0
KSW1 111357Z 19018KT 27/20 A3006 RMK A01 T02740197  RH  063%=      5-min Rain = 0
KSW1 111358Z 19014KT 27/20 A3006 RMK A01 T02730197  RH  063%=      5-min Rain = 0
KSW1 111359Z 18014KT 27/20 A3007 RMK A01 T02730197  RH  063%=      5-min Rain = 0
KSW1 111400Z 18015KT 28/20 A3006 RMK A01 T02750197  RH  062%=      5-min Rain = 0
KSW1 111401Z 18017KT 28/20 A3007 RMK A01 T02750197  RH  062%=      5-min Rain = 0
KSW1 111402Z 18018KT 28/20 A3007 RMK A01 T02750196  RH  062%=      5-min Rain = 0
KSW1 111403Z 19018KT 28/20 A3007 RMK A01 T02750196  RH  062%=      5-min Rain = 0
KSW1 111404Z 18016KT 28/20 A3007 RMK A01 T02750196  RH  062%=      5-min Rain = 0
KSW1 111405Z 18016KT 28/20 A3007 RMK A01 T02750197  RH  062%=      5-min Rain = 0
KSW1 111406Z 19017KT 28/20 A3007 RMK A01 T02760197  RH  062%=      5-min Rain = 0
KSW1 111407Z 18012G17KT 28/20 A3007 RMK A01 T02760197  RH  062%=      5-min Rain = 0
KSW1 111408Z 18014KT 28/20 A3007 RMK A01 T02780198  RH  062%=      5-min Rain = 0
KSW1 111409Z 18012KT 28/20 A3007 RMK A01 T02790197  RH  061%=      5-min Rain = 0
KSW1 111410Z 18017G22KT 28/20 A3007 RMK A01 T02790197  RH  061%=      5-min Rain = 0
KSW1 111411Z 18015KT 28/20 A3007 RMK A01 T02800196  RH  060%=      5-min Rain = 0
KSW1 111412Z 19017KT 28/20 A3007 RMK A01 T02800196  RH  060%=      5-min Rain = 0
KSW1 111413Z 18015KT 28/20 A3007 RMK A01 T02800197  RH  060%=      5-min Rain = 0
KSW1 111414Z 18017KT 28/20 A3007 RMK A01 T02800195  RH  060%=      5-min Rain = 0
KSW1 111415Z 18017G23KT 28/20 A3007 RMK A01 T02810196  RH  060%=      5-min Rain = 0
KSW1 111416Z 20017KT 28/20 A3007 RMK A01 T02800196  RH  060%=      5-min Rain = 0
KSW1 111417Z 19017KT 28/20 A3007 RMK A01 T02800196  RH  060%=      5-min Rain = 0
KSW1 111418Z 19020KT 28/20 A3007 RMK A01 T02800196  RH  060%=      5-min Rain = 0
KSW1 111419Z 19017KT 28/20 A3007 RMK A01 T02800196  RH  060%=      5-min Rain = 0
KSW1 111420Z 18013KT 28/20 A3007 RMK A01 T02790196  RH  061%=      5-min Rain = 0
KSW1 111421Z 18014KT 28/20 A3007 RMK A01 T02820197  RH  060%=      5-min Rain = 0
KSW1 111422Z 18014KT 28/20 A3007 RMK A01 T02840198  RH  060%=      5-min Rain = 0
KSW1 111423Z 18012KT 29/20 A3007 RMK A01 T02850197  RH  059%=      5-min Rain = 0
KSW1 111424Z 17013KT 29/20 A3007 RMK A01 T02860198  RH  059%=      5-min Rain = 0
KSW1 111425Z 17016KT 29/20 A3007 RMK A01 T02870197  RH  058%=      5-min Rain = 0
KSW1 111426Z 18015KT 29/20 A3007 RMK A01 T02860197  RH  059%=      5-min Rain = 0
KSW1 111427Z 18013G18KT 28/20 A3007 RMK A01 T02840197  RH  059%=      5-min Rain = 0
KSW1 111428Z 18013G18KT 29/20 A3007 RMK A01 T02850197  RH  059%=      5-min Rain = 0
KSW1 111429Z 17015KT 29/20 A3007 RMK A01 T02860196  RH  058%=      5-min Rain = 0
KSW1 111430Z 18015KT 29/20 A3007 RMK A01 T02860197  RH  059%=      5-min Rain = 0
KSW1 111431Z 18016KT 29/20 A3007 RMK A01 T02850197  RH  059%=      5-min Rain = 0
KSW1 111432Z 18013KT 29/20 A3007 RMK A01 T02850197  RH  059%=      5-min Rain = 0
KSW1 111433Z 18013G19KT 29/20 A3007 RMK A01 T02860197  RH  058%=      5-min Rain = 0
KSW1 111434Z 18017KT 29/20 A3007 RMK A01 T02870195  RH  058%=      5-min Rain = 0
KSW1 111435Z 18017KT 29/20 A3007 RMK A01 T02870195  RH  058%=      5-min Rain = 0
KSW1 111436Z 19013G18KT 29/20 A3007 RMK A01 T02870196  RH  058%=      5-min Rain = 0
KSW1 111437Z 19015KT 29/20 A3007 RMK A01 T02870196  RH  058%=      5-min Rain = 0
KSW1 111438Z 19016KT 29/20 A3007 RMK A01 T02870197  RH  058%=      5-min Rain = 0
KSW1 111439Z 18015KT 29/20 A3007 RMK A01 T02860196  RH  058%=      5-min Rain = 0
KSW1 111440Z 18012KT 29/20 A3007 RMK A01 T02860197  RH  059%=      5-min Rain = 0
KSW1 111441Z 18012KT 29/20 A3007 RMK A01 T02880198  RH  058%=      5-min Rain = 0
KSW1 111442Z 18012KT 29/20 A3007 RMK A01 T02910197  RH  057%=      5-min Rain = 0
KSW1 111443Z 17012G17KT 29/20 A3007 RMK A01 T02920198  RH  057%=      5-min Rain = 0
KSW1 111444Z 18013KT 29/20 A3007 RMK A01 T02910198  RH  057%=      5-min Rain = 0
KSW1 111445Z 17018KT 29/20 A3007 RMK A01 T02910196  RH  057%=      5-min Rain = 0
KSW1 111446Z 18015KT 29/20 A3007 RMK A01 T02900195  RH  056%=      5-min Rain = 0
KSW1 111447Z 17012KT 29/20 A3007 RMK A01 T02910195  RH  056%=      5-min Rain = 0
KSW1 111448Z 17016KT 29/19 A3007 RMK A01 T02920194  RH  056%=      5-min Rain = 0
KSW1 111449Z 18015KT 29/20 A3007 RMK A01 T02910195  RH  056%=      5-min Rain = 0
KSW1 111450Z 18017KT 29/19 A3007 RMK A01 T02930194  RH  055%=      5-min Rain = 0
KSW1 111451Z 19014KT 29/19 A3007 RMK A01 T02930194  RH  055%=      5-min Rain = 0
KSW1 111452Z 18015KT 29/19 A3007 RMK A01 T02930194  RH  055%=      5-min Rain = 0
KSW1 111453Z 17013KT 29/20 A3007 RMK A01 T02940195  RH  055%=      5-min Rain = 0
KSW1 111454Z 17014KT 30/20 A3007 RMK A01 T02950196  RH  055%=      5-min Rain = 0
KSW1 111455Z 17013G18KT 30/20 A3007 RMK A01 T02950197  RH  055%=      5-min Rain = 0
KSW1 111456Z 17013KT 30/20 A3007 RMK A01 T02960195  RH  055%=      5-min Rain = 0
KSW1 111457Z 18011KT 30/20 A3007 RMK A01 T02970196  RH  055%=      5-min Rain = 0
KSW1 111458Z 18015KT 30/20 A3007 RMK A01 T02990195  RH  054%=      5-min Rain = 0
KSW1 111459Z 17016KT 30/19 A3007 RMK A01 T02990192  RH  053%=      5-min Rain = 0
KSW1 111500Z 17015KT 30/19 A3007 RMK A01 T02970192  RH  053%=      5-min Rain = 0
KSW1 111501Z 17016KT 30/19 A3007 RMK A01 T02980192  RH  053%=      5-min Rain = 0
KSW1 111502Z 19015KT 30/19 A3007 RMK A01 T02980193  RH  053%=      5-min Rain = 0
KSW1 111503Z 19014KT 30/19 A3007 RMK A01 T02970193  RH  054%=      5-min Rain = 0
KSW1 111504Z 19015KT 30/19 A3007 RMK A01 T02980192  RH  053%=      5-min Rain = 0
KSW1 111505Z 19015KT 30/19 A3007 RMK A01 T02980193  RH  053%=      5-min Rain = 0
KSW1 111506Z 19015KT 30/19 A3007 RMK A01 T02980192  RH  053%=      5-min Rain = 0
KSW1 111507Z 19013KT 30/19 A3007 RMK A01 T02990193  RH  053%=      5-min Rain = 0
KSW1 111508Z 20016KT 30/19 A3007 RMK A01 T03000192  RH  052%=      5-min Rain = 0
KSW1 111509Z 19014KT 30/19 A3007 RMK A01 T03000191  RH  052%=      5-min Rain = 0
KSW1 111510Z 19013G18KT 30/19 A3007 RMK A01 T03010192  RH  052%=      5-min Rain = 0
KSW1 111511Z 19016KT 30/19 A3007 RMK A01 T03020191  RH  051%=      5-min Rain = 0
KSW1 111512Z 19015KT 30/19 A3007 RMK A01 T03010192  RH  052%=      5-min Rain = 0
KSW1 111513Z 18013KT 30/19 A3007 RMK A01 T03010192  RH  052%=      5-min Rain = 0
KSW1 111514Z 18012KT 30/19 A3008 RMK A01 T03010192  RH  052%=      5-min Rain = 0
KSW1 111515Z 17012G17KT 30/19 A3007 RMK A01 T03010191  RH  052%=      5-min Rain = 0
KSW1 111516Z 17013KT 30/19 A3008 RMK A01 T03020192  RH  052%=      5-min Rain = 0
KSW1 111517Z 18010KT 30/19 A3008 RMK A01 T03040193  RH  052%=      5-min Rain = 0
KSW1 111518Z 18013KT 31/19 A3008 RMK A01 T03060193  RH  051%=      5-min Rain = 0
KSW1 111519Z 17013G18KT 31/19 A3007 RMK A01 T03060193  RH  051%=      5-min Rain = 0
KSW1 111520Z 19013KT 31/19 A3008 RMK A01 T03060192  RH  051%=      5-min Rain = 0
KSW1 111521Z 18013KT 31/19 A3007 RMK A01 T03060190  RH  050%=      5-min Rain = 0
KSW1 111522Z 17014KT 30/19 A3007 RMK A01 T03040192  RH  051%=      5-min Rain = 0
KSW1 111523Z 17014KT 30/19 A3007 RMK A01 T03040193  RH  051%=      5-min Rain = 0
KSW1 111524Z 17012KT 30/19 A3007 RMK A01 T03030192  RH  052%=      5-min Rain = 0
KSW1 111525Z 17013KT 30/19 A3007 RMK A01 T03020193  RH  052%=      5-min Rain = 0
KSW1 111526Z 18013KT 30/19 A3007 RMK A01 T03020192  RH  052%=      5-min Rain = 0
KSW1 111527Z 17010KT 30/19 A3007 RMK A01 T03020192  RH  052%=      5-min Rain = 0
KSW1 111528Z 18016KT 31/19 A3007 RMK A01 T03060192  RH  051%=      5-min Rain = 0
KSW1 111529Z 18015KT 31/19 A3007 RMK A01 T03070190  RH  050%=      5-min Rain = 0
KSW1 111530Z 19014KT 31/19 A3008 RMK A01 T03050190  RH  050%=      5-min Rain = 0
KSW1 111531Z 19016KT 31/19 A3008 RMK A01 T03050189  RH  050%=      5-min Rain = 0
KSW1 111532Z 19014KT 31/19 A3008 RMK A01 T03050190  RH  050%=      5-min Rain = 0
KSW1 111533Z 19014KT 30/19 A3007 RMK A01 T03040191  RH  051%=      5-min Rain = 0
KSW1 111534Z 19016KT 31/19 A3008 RMK A01 T03050191  RH  051%=      5-min Rain = 0
KSW1 111535Z 17014KT 31/19 A3008 RMK A01 T03050192  RH  051%=      5-min Rain = 0
KSW1 111536Z 17015KT 31/19 A3008 RMK A01 T03050191  RH  051%=      5-min Rain = 0
KSW1 111537Z 18016KT 31/19 A3008 RMK A01 T03050190  RH  050%=      5-min Rain = 0
KSW1 111538Z 19014KT 31/19 A3008 RMK A01 T03050189  RH  050%=      5-min Rain = 0
KSW1 111539Z 18016KT 31/19 A3008 RMK A01 T03050188  RH  050%=      5-min Rain = 0
KSW1 111540Z 18012G17KT 31/19 A3008 RMK A01 T03050188  RH  050%=      5-min Rain = 0
KSW1 111541Z 17016KT 31/19 A3008 RMK A01 T03070188  RH  049%=      5-min Rain = 0
KSW1 111542Z 17014KT 31/19 A3008 RMK A01 T03080187  RH  049%=      5-min Rain = 0
KSW1 111543Z 17014KT 31/19 A3008 RMK A01 T03090189  RH  049%=      5-min Rain = 0
KSW1 111544Z 17014KT 31/19 A3008 RMK A01 T03100189  RH  049%=      5-min Rain = 0
KSW1 111545Z 18013G18KT 31/19 A3008 RMK A01 T03110188  RH  048%=      5-min Rain = 0
KSW1 111546Z 18014KT 31/19 A3008 RMK A01 T03110190  RH  048%=      5-min Rain = 0
KSW1 111547Z 20012KT 31/19 A3008 RMK A01 T03110189  RH  048%=      5-min Rain = 0
KSW1 111548Z 19012KT 31/19 A3008 RMK A01 T03110189  RH  048%=      5-min Rain = 0
KSW1 111549Z 19014G19KT 31/19 A3008 RMK A01 T03110190  RH  049%=      5-min Rain = 0
KSW1 111550Z 18014KT 31/19 A3008 RMK A01 T03120190  RH  048%=      5-min Rain = 0
KSW1 111551Z 19014KT 31/19 A3008 RMK A01 T03110189  RH  048%=      5-min Rain = 0
KSW1 111552Z 18016KT 31/19 A3008 RMK A01 T03100189  RH  049%=      5-min Rain = 0
KSW1 111553Z 19013KT 31/19 A3008 RMK A01 T03110188  RH  048%=      5-min Rain = 0
KSW1 111554Z 18013KT 31/19 A3008 RMK A01 T03120189  RH  048%=      5-min Rain = 0
KSW1 111555Z 19011KT 31/19 A3008 RMK A01 T03120189  RH  048%=      5-min Rain = 0
KSW1 111556Z 19013KT 31/19 A3008 RMK A01 T03110190  RH  048%=      5-min Rain = 0
KSW1 111557Z 18012KT 31/19 A3008 RMK A01 T03120190  RH  048%=      5-min Rain = 0
KSW1 111558Z 18010KT 31/19 A3008 RMK A01 T03140190  RH  048%=      5-min Rain = 0
KSW1 111559Z 17013KT 32/19 A3008 RMK A01 T03170190  RH  047%=      5-min Rain = 0
KSW1 111600Z 17012KT 32/19 A3008 RMK A01 T03160189  RH  047%=      5-min Rain = 0
KSW1 111601Z 18012KT 32/19 A3008 RMK A01 T03150189  RH  047%=      5-min Rain = 0
KSW1 111602Z 20012KT 32/19 A3008 RMK A01 T03160189  RH  047%=      5-min Rain = 0
KSW1 111603Z 18014KT 32/19 A3008 RMK A01 T03170188  RH  047%=      5-min Rain = 0
KSW1 111604Z 19012KT 32/19 A3008 RMK A01 T03150189  RH  047%=      5-min Rain = 0
KSW1 111605Z 17014KT 32/19 A3008 RMK A01 T03160189  RH  047%=      5-min Rain = 0
KSW1 111606Z 18014KT 32/19 A3008 RMK A01 T03180189  RH  046%=      5-min Rain = 0
KSW1 111607Z 18015KT 32/19 A3008 RMK A01 T03170188  RH  046%=      5-min Rain = 0
KSW1 111608Z 18012KT 32/19 A3008 RMK A01 T03150188  RH  047%=      5-min Rain = 0
KSW1 111609Z 19009KT 32/19 A3008 RMK A01 T03150188  RH  047%=      5-min Rain = 0
KSW1 111610Z 19016KT 32/19 A3007 RMK A01 T03170186  RH  046%=      5-min Rain = 0
KSW1 111611Z 20014KT 32/18 A3008 RMK A01 T03180184  RH  045%=      5-min Rain = 0
KSW1 111612Z 18011KT 32/19 A3008 RMK A01 T03170185  RH  046%=      5-min Rain = 0
KSW1 111613Z 18012G17KT 32/19 A3008 RMK A01 T03180185  RH  045%=      5-min Rain = 0
KSW1 111614Z 19011G16KT 32/18 A3008 RMK A01 T03220184  RH  044%=      5-min Rain = 0
KSW1 111615Z 18010G16KT 32/19 A3008 RMK A01 T03240186  RH  044%=      5-min Rain = 0
KSW1 111616Z 18013KT 33/19 A3008 RMK A01 T03260189  RH  044%=      5-min Rain = 0
KSW1 111617Z 17013KT 33/19 A3008 RMK A01 T03270190  RH  044%=      5-min Rain = 0
KSW1 111618Z 17014KT 32/19 A3008 RMK A01 T03240188  RH  044%=      5-min Rain = 0
KSW1 111619Z 18012KT 32/19 A3008 RMK A01 T03230187  RH  045%=      5-min Rain = 0
KSW1 111620Z 17011KT 32/19 A3008 RMK A01 T03210187  RH  045%=      5-min Rain = 0
KSW1 111621Z 18010G15KT 32/19 A3008 RMK A01 T03210188  RH  045%=      5-min Rain = 0
KSW1 111622Z 18014KT 32/19 A3008 RMK A01 T03240187  RH  044%=      5-min Rain = 0
KSW1 111623Z 18012G17KT 33/19 A3008 RMK A01 T03260189  RH  044%=      5-min Rain = 0
KSW1 111624Z 18013KT 33/19 A3008 RMK A01 T03300187  RH  043%=      5-min Rain = 0
KSW1 111625Z 18013KT 33/19 A3008 RMK A01 T03290185  RH  043%=      5-min Rain = 0
KSW1 111626Z 17014KT 33/18 A3007 RMK A01 T03270184  RH  043%=      5-min Rain = 0
KSW1 111627Z 17012KT 33/19 A3007 RMK A01 T03250186  RH  044%=      5-min Rain = 0
KSW1 111628Z 18013KT 33/19 A3007 RMK A01 T03250185  RH  043%=      5-min Rain = 0
KSW1 111629Z 17014KT 33/18 A3007 RMK A01 T03270184  RH  043%=      5-min Rain = 0
KSW1 111630Z 18015KT 33/19 A3007 RMK A01 T03270185  RH  043%=      5-min Rain = 0
KSW1 111631Z 19014KT 33/19 A3007 RMK A01 T03280185  RH  043%=      5-min Rain = 0
KSW1 111632Z 18014KT 33/18 A3007 RMK A01 T03280184  RH  043%=      5-min Rain = 0
KSW1 111633Z 19013KT 33/18 A3007 RMK A01 T03280184  RH  042%=      5-min Rain = 0
KSW1 111634Z 19016KT 33/18 A3007 RMK A01 T03280183  RH  042%=      5-min Rain = 0
KSW1 111635Z 20012KT 33/18 A3007 RMK A01 T03260183  RH  043%=      5-min Rain = 0
KSW1 111636Z 21014KT 33/19 A3007 RMK A01 T03260185  RH  043%=      5-min Rain = 0
KSW1 111637Z 18012KT 33/19 A3007 RMK A01 T03270186  RH  043%=      5-min Rain = 0
KSW1 111638Z 17010KT 33/19 A3007 RMK A01 T03280187  RH  043%=      5-min Rain = 0
KSW1 111639Z 19012KT 33/18 A3007 RMK A01 T03290184  RH  042%=      5-min Rain = 0
KSW1 111640Z 20010KT 33/18 A3007 RMK A01 T03300184  RH  042%=      5-min Rain = 0
KSW1 111641Z 19012KT 33/18 A3007 RMK A01 T03320183  RH  041%=      5-min Rain = 0
KSW1 111642Z 18012KT 33/18 A3007 RMK A01 T03290183  RH  042%=      5-min Rain = 0
KSW1 111643Z 19012KT 33/18 A3007 RMK A01 T03300181  RH  041%=      5-min Rain = 0
KSW1 111644Z 21014KT 33/18 A3007 RMK A01 T03320181  RH  041%=      5-min Rain = 0
KSW1 111645Z 19013KT 33/18 A3007 RMK A01 T03330179  RH  040%=      5-min Rain = 0
KSW1 111646Z 19014KT 33/18 A3007 RMK A01 T03300180  RH  041%=      5-min Rain = 0
KSW1 111647Z 19015KT 33/18 A3007 RMK A01 T03310181  RH  041%=      5-min Rain = 0
KSW1 111648Z 19016KT 33/18 A3007 RMK A01 T03290183  RH  042%=      5-min Rain = 0
KSW1 111649Z 19014KT 33/18 A3007 RMK A01 T03290182  RH  042%=      5-min Rain = 0
KSW1 111650Z 20011G16KT 33/18 A3007 RMK A01 T03280182  RH  042%=      5-min Rain = 0
KSW1 111651Z 20011KT 33/18 A3007 RMK A01 T03290183  RH  042%=      5-min Rain = 0
KSW1 111652Z 20011KT 33/19 A3007 RMK A01 T03320185  RH  042%=      5-min Rain = 0
KSW1 111653Z 19014KT 34/18 A3007 RMK A01 T03360184  RH  041%=      5-min Rain = 0
KSW1 111654Z 19012KT 33/18 A3007 RMK A01 T03340184  RH  041%=      5-min Rain = 0
KSW1 111655Z 19010KT 33/18 A3007 RMK A01 T03300184  RH  042%=      5-min Rain = 0
KSW1 111656Z 19012KT 33/18 A3007 RMK A01 T03300184  RH  042%=      5-min Rain = 0
KSW1 111657Z 19013KT 33/18 A3007 RMK A01 T03320183  RH  041%=      5-min Rain = 0
KSW1 111658Z 18011KT 34/18 A3007 RMK A01 T03350181  RH  040%=      5-min Rain = 0
KSW1 111659Z 20012KT 33/18 A3007 RMK A01 T03340182  RH  041%=      5-min Rain = 0
KSW1 111700Z 19011KT 33/18 A3007 RMK A01 T03320182  RH  041%=      5-min Rain = 0
KSW1 111701Z 20012G17KT 33/18 A3007 RMK A01 T03330183  RH  041%=      5-min Rain = 0
KSW1 111702Z 21012KT 34/18 A3007 RMK A01 T03360181  RH  040%=      5-min Rain = 0
KSW1 111703Z 20011KT 34/18 A3007 RMK A01 T03370181  RH  040%=      5-min Rain = 0
KSW1 111704Z 18010KT 34/18 A3007 RMK A01 T03380184  RH  040%=      5-min Rain = 0
KSW1 111705Z 17009KT 34/19 A3007 RMK A01 T03380185  RH  040%=      5-min Rain = 0
KSW1 111706Z 17014KT 34/18 A3007 RMK A01 T03370184  RH  040%=      5-min Rain = 0
KSW1 111707Z 16017KT 34/18 A3007 RMK A01 T03370181  RH  040%=      5-min Rain = 0
KSW1 111708Z 17016KT 34/18 A3007 RMK A01 T03350181  RH  040%=      5-min Rain = 0
KSW1 111709Z 18014KT 34/18 A3007 RMK A01 T03350180  RH  040%=      5-min Rain = 0
KSW1 111710Z 19013KT 33/18 A3007 RMK A01 T03340180  RH  040%=      5-min Rain = 0
KSW1 111711Z 19014KT 34/18 A3007 RMK A01 T03350180  RH  040%=      5-min Rain = 0
KSW1 111712Z 19014KT 34/18 A3006 RMK A01 T03350181  RH  040%=      5-min Rain = 0
KSW1 111713Z 19014KT 34/18 A3007 RMK A01 T03390178  RH  038%=      5-min Rain = 0
KSW1 111714Z 16013KT 34/18 A3006 RMK A01 T03380182  RH  040%=      5-min Rain = 0
KSW1 111715Z 17015KT 34/18 A3006 RMK A01 T03390183  RH  040%=      5-min Rain = 0
KSW1 111716Z 18015KT 34/18 A3006 RMK A01 T03390182  RH  040%=      5-min Rain = 0
KSW1 111717Z 18012KT 34/18 A3006 RMK A01 T03390179  RH  039%=      5-min Rain = 0
KSW1 111718Z 18014KT 34/18 A3006 RMK A01 T03390181  RH  039%=      5-min Rain = 0
KSW1 111719Z 18013KT 34/18 A3006 RMK A01 T03380178  RH  039%=      5-min Rain = 0
KSW1 111720Z 19012KT 34/18 A3006 RMK A01 T03360177  RH  039%=      5-min Rain = 0
KSW1 111721Z 19013KT 34/18 A3006 RMK A01 T03350177  RH  039%=      5-min Rain = 0
KSW1 111722Z 19013KT 34/18 A3006 RMK A01 T03380177  RH  038%=      5-min Rain = 0
KSW1 111723Z 18014KT 34/18 A3006 RMK A01 T03400180  RH  039%=      5-min Rain = 0
KSW1 111724Z 17015KT 34/18 A3006 RMK A01 T03420180  RH  038%=      5-min Rain = 0
KSW1 111725Z 17012KT 34/18 A3006 RMK A01 T03410178  RH  038%=      5-min Rain = 0
KSW1 111726Z 16014G19KT 34/18 A3006 RMK A01 T03410178  RH  038%=      5-min Rain = 0
KSW1 111727Z 17015KT 34/18 A3006 RMK A01 T03440176  RH  037%=      5-min Rain = 0
KSW1 111728Z 18014KT 34/18 A3006 RMK A01 T03440175  RH  037%=      5-min Rain = 0
KSW1 111729Z 18013KT 34/18 A3006 RMK A01 T03420177  RH  037%=      5-min Rain = 0
KSW1 111730Z 17011KT 34/18 A3006 RMK A01 T03420176  RH  037%=      5-min Rain = 0
KSW1 111731Z 17011KT 34/18 A3006 RMK A01 T03410178  RH  038%=      5-min Rain = 0
KSW1 111732Z 17013KT 34/18 A3006 RMK A01 T03420177  RH  038%=      5-min Rain = 0
KSW1 111733Z 19011G17KT 35/17 A3006 RMK A01 T03450174  RH  036%=      5-min Rain = 0
KSW1 111734Z 17012KT 35/17 A3006 RMK A01 T03530173  RH  035%=      5-min Rain = 0
KSW1 111735Z 20013KT 35/17 A3006 RMK A01 T03520173  RH  035%=      5-min Rain = 0
KSW1 111736Z 19012KT 35/17 A3006 RMK A01 T03470173  RH  036%=      5-min Rain = 0
KSW1 111737Z 17014KT 35/18 A3006 RMK A01 T03480175  RH  036%=      5-min Rain = 0
KSW1 111738Z 17016KT 35/17 A3006 RMK A01 T03490173  RH  035%=      5-min Rain = 0
KSW1 111739Z 17015KT 35/17 A3006 RMK A01 T03460170  RH  035%=      5-min Rain = 0
KSW1 111740Z 16013KT 34/17 A3006 RMK A01 T03430170  RH  036%=      5-min Rain = 0
KSW1 111741Z 17014KT 34/17 A3005 RMK A01 T03440169  RH  035%=      5-min Rain = 0
KSW1 111742Z 18013KT 34/17 A3006 RMK A01 T03440169  RH  035%=      5-min Rain = 0
KSW1 111743Z 18013KT 35/17 A3005 RMK A01 T03450168  RH  035%=      5-min Rain = 0
KSW1 111744Z 18013KT 35/17 A3005 RMK A01 T03470170  RH  035%=      5-min Rain = 0
KSW1 111745Z 19014KT 35/17 A3005 RMK A01 T03490169  RH  034%=      5-min Rain = 0
KSW1 111746Z 19014KT 35/17 A3005 RMK A01 T03480171  RH  035%=      5-min Rain = 0
KSW1 111747Z 19014KT 35/17 A3005 RMK A01 T03470170  RH  035%=      5-min Rain = 0
KSW1 111748Z 19012KT 35/17 A3005 RMK A01 T03450168  RH  035%=      5-min Rain = 0
KSW1 111749Z 18014G21KT 35/17 A3005 RMK A01 T03470168  RH  034%=      5-min Rain = 0
KSW1 111750Z 17018KT 35/17 A3005 RMK A01 T03500166  RH  034%=      5-min Rain = 0
KSW1 111751Z 17013KT 35/17 A3005 RMK A01 T03480165  RH  034%=      5-min Rain = 0
KSW1 111752Z 17016G22KT 35/17 A3005 RMK A01 T03480166  RH  034%=      5-min Rain = 0
KSW1 111753Z 18016KT 35/17 A3005 RMK A01 T03480167  RH  034%=      5-min Rain = 0
KSW1 111754Z 17012G17KT 35/17 A3005 RMK A01 T03470167  RH  034%=      5-min Rain = 0
KSW1 111755Z 17008KT 35/17 A3005 RMK A01 T03460168  RH  035%=      5-min Rain = 0
KSW1 111756Z 18017KT 35/16 A3005 RMK A01 T03500164  RH  033%=      5-min Rain = 0
KSW1 111757Z 17015KT 35/16 A3005 RMK A01 T03510160  RH  032%=      5-min Rain = 0
KSW1 111758Z 16012KT 35/16 A3005 RMK A01 T03510161  RH  032%=      5-min Rain = 0
KSW1 111759Z 17014KT 35/16 A3005 RMK A01 T03510161  RH  032%=      5-min Rain = 0
KSW1 111800Z 17016KT 35/16 A3004 RMK A01 T03500157  RH  032%=      5-min Rain = 0
KSW1 111801Z 17015KT 35/16 A3004 RMK A01 T03490162  RH  033%=      5-min Rain = 0
KSW1 111802Z 17014KT 35/16 A3004 RMK A01 T03480162  RH  033%=      5-min Rain = 0
KSW1 111803Z 17011KT 35/16 A3004 RMK A01 T03480163  RH  033%=      5-min Rain = 0
KSW1 111804Z 17015KT 35/16 A3004 RMK A01 T03510162  RH  033%=      5-min Rain = 0
KSW1 111805Z 18013KT 35/16 A3004 RMK A01 T03510163  RH  033%=      5-min Rain = 0
KSW1 111806Z 18010G15KT 35/16 A3004 RMK A01 T03510163  RH  033%=      5-min Rain = 0
KSW1 111807Z 16011KT 35/16 A3004 RMK A01 T03530164  RH  033%=      5-min Rain = 0
KSW1 111808Z 17011KT 35/17 A3004 RMK A01 T03540165  RH  033%=      5-min Rain = 0
KSW1 111809Z 17010KT 35/17 A3004 RMK A01 T03540165  RH  033%=      5-min Rain = 0
KSW1 111810Z 16008KT 35/17 A3004 RMK A01 T03530165  RH  033%=      5-min Rain = 0
KSW1 111811Z 18013KT 35/16 A3004 RMK A01 T03540160  RH  032%=      5-min Rain = 0
KSW1 111812Z 19013KT 35/16 A3004 RMK A01 T03530156  RH  031%=      5-min Rain = 0
KSW1 111813Z 18012G17KT 35/16 A3004 RMK A01 T03530160  RH  032%=      5-min Rain = 0
KSW1 111814Z 17011KT 36/16 A3004 RMK A01 T03570163  RH  032%=      5-min Rain = 0
KSW1 111815Z 16014KT 36/16 A3004 RMK A01 T03590161  RH  031%=      5-min Rain = 0
KSW1 111816Z 16013KT 36/16 A3004 RMK A01 T03580160  RH  031%=      5-min Rain = 0
KSW1 111817Z 16011KT 36/16 A3004 RMK A01 T03560160  RH  031%=      5-min Rain = 0
KSW1 111818Z 17011G17KT 36/16 A3004 RMK A01 T03560160  RH  031%=      5-min Rain = 0
KSW1 111819Z 18013KT 36/16 A3004 RMK A01 T03580155  RH  030%=      5-min Rain = 0
KSW1 111820Z 19016KT 36/16 A3004 RMK A01 T03570155  RH  030%=      5-min Rain = 0
KSW1 111821Z 18015KT 36/15 A3003 RMK A01 T03550154  RH  030%=      5-min Rain = 0
KSW1 111822Z 19014KT 35/15 A3003 RMK A01 T03520154  RH  031%=      5-min Rain = 0
KSW1 111823Z 19012KT 35/16 A3004 RMK A01 T03540156  RH  031%=      5-min Rain = 0
KSW1 111824Z 18009KT 36/16 A3004 RMK A01 T03570155  RH  030%=      5-min Rain = 0
KSW1 111825Z 19007KT 36/16 A3003 RMK A01 T03550157  RH  031%=      5-min Rain = 0
KSW1 111826Z 19009KT 36/16 A3003 RMK A01 T03580156  RH  030%=      5-min Rain = 0
KSW1 111827Z 17015G20KT 36/16 A3003 RMK A01 T03610155  RH  029%=      5-min Rain = 0
KSW1 111828Z 16013KT 36/16 A3003 RMK A01 T03610155  RH  029%=      5-min Rain = 0
KSW1 111829Z 17013KT 36/16 A3003 RMK A01 T03600156  RH  030%=      5-min Rain = 0
KSW1 111830Z 16008KT 36/16 A3003 RMK A01 T03590155  RH  030%=      5-min Rain = 0
KSW1 111831Z 15009KT 36/15 A3003 RMK A01 T03570154  RH  030%=      5-min Rain = 0
KSW1 111832Z 16011KT 36/16 A3003 RMK A01 T03580155  RH  030%=      5-min Rain = 0
KSW1 111833Z 16012KT 36/16 A3003 RMK A01 T03630156  RH  029%=      5-min Rain = 0
KSW1 111834Z 18010KT 37/15 A3003 RMK A01 T03650152  RH  028%=      5-min Rain = 0
KSW1 111835Z 17011G17KT 36/15 A3003 RMK A01 T03590150  RH  029%=      5-min Rain = 0
KSW1 111836Z 14011KT 36/15 A3003 RMK A01 T03560151  RH  029%=      5-min Rain = 0
KSW1 111837Z 14012KT 36/15 A3003 RMK A01 T03590152  RH  029%=      5-min Rain = 0
KSW1 111838Z 15010KT 36/16 A3003 RMK A01 T03610155  RH  029%=      5-min Rain = 0
KSW1 111839Z 17011KT 36/15 A3003 RMK A01 T03630154  RH  029%=      5-min Rain = 0
KSW1 111840Z 18010KT 37/15 A3003 RMK A01 T03670154  RH  028%=      5-min Rain = 0
KSW1 111841Z 18012G19KT 37/15 A3002 RMK A01 T03680153  RH  028%=      5-min Rain = 0
KSW1 111842Z 16012KT 36/15 A3002 RMK A01 T03640153  RH  029%=      5-min Rain = 0
KSW1 111843Z 15013KT 36/15 A3002 RMK A01 T03640153  RH  029%=      5-min Rain = 0
KSW1 111844Z 17008KT 36/16 A3002 RMK A01 T03640155  RH  029%=      5-min Rain = 0
KSW1 111845Z 16010KT 37/16 A3002 RMK A01 T03670155  RH  029%=      5-min Rain = 0
KSW1 111846Z 17011KT 37/15 A3002 RMK A01 T03680154  RH  028%=      5-min Rain = 0
KSW1 111847Z 17011KT 36/15 A3002 RMK A01 T03640154  RH  029%=      5-min Rain = 0
KSW1 111848Z 16012KT 36/16 A3002 RMK A01 T03640155  RH  029%=      5-min Rain = 0
KSW1 111849Z 15013G18KT 37/15 A3002 RMK A01 T03660154  RH  028%=      5-min Rain = 0
KSW1 111850Z 14016KT 37/15 A3002 RMK A01 T03660150  RH  028%=      5-min Rain = 0
KSW1 111851Z 16018KT 36/15 A3002 RMK A01 T03640148  RH  028%=      5-min Rain = 0
KSW1 111852Z 15013KT 36/15 A3002 RMK A01 T03610148  RH  028%=      5-min Rain = 0
KSW1 111853Z 16011KT 36/15 A3002 RMK A01 T03610150  RH  029%=      5-min Rain = 0
KSW1 111854Z 18012KT 36/15 A3001 RMK A01 T03640151  RH  028%=      5-min Rain = 0
KSW1 111855Z 18011KT 36/15 A3001 RMK A01 T03640151  RH  028%=      5-min Rain = 0
KSW1 111856Z 18015KT 37/15 A3001 RMK A01 T03670152  RH  028%=      5-min Rain = 0
KSW1 111857Z 17014KT 37/15 A3001 RMK A01 T03650152  RH  028%=      5-min Rain = 0
KSW1 111858Z 15014KT 37/15 A3001 RMK A01 T03660151  RH  028%=      5-min Rain = 0
KSW1 111859Z 14012KT 37/15 A3001 RMK A01 T03680150  RH  027%=      5-min Rain = 0
KSW1 111900Z 15011KT 37/15 A3001 RMK A01 T03700149  RH  027%=      5-min Rain = 0
KSW1 111901Z 17009KT 37/15 A3001 RMK A01 T03690149  RH  027%=      5-min Rain = 0
KSW1 111902Z 16011KT 37/15 A3001 RMK A01 T03670148  RH  027%=      5-min Rain = 0
KSW1 111903Z 16015G20KT 37/15 A3001 RMK A01 T03650148  RH  028%=      5-min Rain = 0
KSW1 111904Z 15016KT 36/15 A3001 RMK A01 T03630148  RH  028%=      5-min Rain = 0
KSW1 111905Z 14013KT 36/15 A3001 RMK A01 T03610147  RH  028%=      5-min Rain = 0
KSW1 111906Z 14013KT 36/15 A3001 RMK A01 T03600147  RH  028%=      5-min Rain = 0
KSW1 111907Z 15015KT 36/14 A3001 RMK A01 T03610142  RH  027%=      5-min Rain = 0
KSW1 111908Z 14011KT 36/14 A3001 RMK A01 T03640142  RH  027%=      5-min Rain = 0
KSW1 111909Z 12011KT 37/14 A3001 RMK A01 T03670144  RH  027%=      5-min Rain = 0
KSW1 111910Z 13011KT 37/14 A3001 RMK A01 T03690144  RH  026%=      5-min Rain = 0
KSW1 111911Z 13011KT 37/15 A3001 RMK A01 T03680145  RH  027%=      5-min Rain = 0
KSW1 111912Z 15012KT 37/15 A3001 RMK A01 T03700147  RH  027%=      5-min Rain = 0
KSW1 111913Z 16012KT 37/15 A3001 RMK A01 T03680148  RH  027%=      5-min Rain = 0
KSW1 111914Z 17016KT 37/15 A30 RMK A01 T03660149  RH  027%=      5-min Rain = 0
KSW1 111915Z 16013KT 37/15 A3001 RMK A01 T03660148  RH  027%=      5-min Rain = 0
KSW1 111916Z 17009KT 37/15 A3001 RMK A01 T03670145  RH  027%=      5-min Rain = 0
KSW1 111917Z 16011KT 37/14 A30 RMK A01 T03660143  RH  027%=      5-min Rain = 0
KSW1 111918Z 16014KT 36/14 A30 RMK A01 T03630142  RH  027%=      5-min Rain = 0
KSW1 111919Z 14014KT 36/14 A30 RMK A01 T03640142  RH  027%=      5-min Rain = 0
KSW1 111920Z 15017KT 37/14 A30 RMK A01 T03650141  RH  026%=      5-min Rain = 0
KSW1 111921Z 13015KT 37/14 A30 RMK A01 T03670143  RH  026%=      5-min Rain = 0
KSW1 111922Z 14011KT 37/14 A30 RMK A01 T03660143  RH  027%=      5-min Rain = 0
KSW1 111923Z 14012G18KT 36/14 A30 RMK A01 T03640144  RH  027%=      5-min Rain = 0
KSW1 111924Z 17018KT 37/14 A30 RMK A01 T03660143  RH  027%=      5-min Rain = 0
KSW1 111925Z 16014KT 37/14 A30 RMK A01 T03670143  RH  026%=      5-min Rain = 0
KSW1 111926Z 17012KT 37/14 A30 RMK A01 T03660144  RH  027%=      5-min Rain = 0
KSW1 111927Z 17011KT 36/14 A30 RMK A01 T03640141  RH  026%=      5-min Rain = 0
KSW1 111928Z 15010G17KT 36/14 A30 RMK A01 T03620140  RH  027%=      5-min Rain = 0
KSW1 111929Z 14012KT 36/14 A30 RMK A01 T03640141  RH  026%=      5-min Rain = 0
KSW1 111930Z 13015KT 37/14 A30 RMK A01 T03700140  RH  025%=      5-min Rain = 0
KSW1 111931Z 14016KT 37/14 A30 RMK A01 T03700141  RH  026%=      5-min Rain = 0
KSW1 111932Z 13015KT 37/14 A30 RMK A01 T03710143  RH  026%=      5-min Rain = 0
KSW1 111933Z 13016G23KT 37/14 A30 RMK A01 T03710144  RH  026%=      5-min Rain = 0
KSW1 111934Z 12013KT 37/14 A30 RMK A01 T03710142  RH  026%=      5-min Rain = 0
KSW1 111935Z 14013KT 37/14 A30 RMK A01 T03690141  RH  026%=      5-min Rain = 0
KSW1 111936Z 17013KT 37/14 A30 RMK A01 T03680142  RH  026%=      5-min Rain = 0
KSW1 111937Z 18015G21KT 37/14 A30 RMK A01 T03690139  RH  025%=      5-min Rain = 0
KSW1 111938Z 18014KT 37/14 A30 RMK A01 T03710137  RH  025%=      5-min Rain = 0
KSW1 111939Z 17012KT 37/14 A30 RMK A01 T03680136  RH  025%=      5-min Rain = 0
KSW1 111940Z 15011KT 37/14 A30 RMK A01 T03700137  RH  025%=      5-min Rain = 0
KSW1 111941Z 16014KT 37/13 A30 RMK A01 T03720134  RH  024%=      5-min Rain = 0
KSW1 111942Z 18015KT 37/13 A30 RMK A01 T03730132  RH  024%=      5-min Rain = 0
KSW1 111943Z 17012KT 37/13 A30 RMK A01 T03710130  RH  024%=      5-min Rain = 0
KSW1 111944Z 17011KT 37/13 A30 RMK A01 T03690132  RH  024%=      5-min Rain = 0
KSW1 111945Z 17009KT 37/13 A30 RMK A01 T03680132  RH  024%=      5-min Rain = 0
KSW1 111946Z 18014KT 37/13 A30 RMK A01 T03680134  RH  025%=      5-min Rain = 0
KSW1 111947Z 18013KT 37/14 A30 RMK A01 T03690140  RH  026%=      5-min Rain = 0
KSW1 111948Z 16011KT 37/14 A30 RMK A01 T03690141  RH  026%=      5-min Rain = 0
KSW1 111949Z 17010KT 37/14 A30 RMK A01 T03680138  RH  025%=      5-min Rain = 0
KSW1 111950Z 18008KT 37/14 A30 RMK A01 T03690139  RH  025%=      5-min Rain = 0
KSW1 111951Z 17008KT 37/14 A30 RMK A01 T03740137  RH  024%=      5-min Rain = 0
KSW1 111952Z 17009KT 38/14 A30 RMK A01 T03760137  RH  024%=      5-min Rain = 0
KSW1 111953Z 17011G18KT 38/14 A2999 RMK A01 T03760137  RH  024%=      5-min Rain = 0
KSW1 111954Z 17015KT 38/14 A2999 RMK A01 T03770136  RH  024%=      5-min Rain = 0
KSW1 111955Z 17013KT 37/14 A2999 RMK A01 T03740135  RH  024%=      5-min Rain = 0
KSW1 111956Z 18011KT 37/13 A2999 RMK A01 T03700134  RH  025%=      5-min Rain = 0
KSW1 111957Z 17013G19KT 37/13 A2999 RMK A01 T03720133  RH  024%=      5-min Rain = 0
KSW1 111958Z 17016KT 37/13 A2999 RMK A01 T03720131  RH  024%=      5-min Rain = 0
KSW1 111959Z 17010KT 37/13 A2999 RMK A01 T03700129  RH  024%=      5-min Rain = 0
KSW1 112000Z 16009KT 37/13 A2999 RMK A01 T03680126  RH  023%=      5-min Rain = 0
KSW1 112001Z 17012G18KT 37/13 A2999 RMK A01 T03680128  RH  024%=      5-min Rain = 0
KSW1 112002Z 17013KT 37/13 A2999 RMK A01 T03690126  RH  023%=      5-min Rain = 0
KSW1 112003Z 17012G17KT 37/13 A2999 RMK A01 T03700127  RH  023%=      5-min Rain = 0
KSW1 112004Z 17016KT 37/13 A2999 RMK A01 T03720129  RH  023%=      5-min Rain = 0
KSW1 112005Z 17012KT 37/13 A2999 RMK A01 T03720127  RH  023%=      5-min Rain = 0
KSW1 112006Z 17007KT 37/13 A2999 RMK A01 T03680127  RH  024%=      5-min Rain = 0
KSW1 112007Z 18008KT 37/13 A2999 RMK A01 T03670125  RH  023%=      5-min Rain = 0
KSW1 112008Z 17007KT 37/13 A2999 RMK A01 T03660125  RH  024%=      5-min Rain = 0
KSW1 112009Z 15011G19KT 37/13 A2999 RMK A01 T03680130  RH  024%=      5-min Rain = 0
KSW1 112010Z 14012KT 37/13 A2999 RMK A01 T03730128  RH  023%=      5-min Rain = 0
KSW1 112011Z 14014G19KT 38/13 A2999 RMK A01 T03760127  RH  023%=      5-min Rain = 0
KSW1 112012Z 17014KT 38/12 A2999 RMK A01 T03770123  RH  022%=      5-min Rain = 0
KSW1 112013Z 19014KT 38/12 A2999 RMK A01 T03760117  RH  021%=      5-min Rain = 0
KSW1 112014Z 17011KT 37/12 A2999 RMK A01 T03710116  RH  022%=      5-min Rain = 0
KSW1 112015Z 16010KT 37/12 A2999 RMK A01 T03690120  RH  022%=      5-min Rain = 0
KSW1 112016Z 12010KT 37/12 A2998 RMK A01 T03690121  RH  023%=      5-min Rain = 0
KSW1 112017Z 15012G17KT 37/12 A2997 RMK A01 T03720121  RH  022%=      5-min Rain = 0
KSW1 112018Z 17010KT 38/12 A2999 RMK A01 T03770123  RH  022%=      5-min Rain = 0
KSW1 112019Z 16011KT 38/13 A2998 RMK A01 T03800125  RH  022%=      5-min Rain = 0
KSW1 112020Z 15011G16KT 38/12 A2998 RMK A01 T03820121  RH  021%=      5-min Rain = 0
KSW1 112021Z 14008G14KT 38/12 A2998 RMK A01 T03800121  RH  021%=      5-min Rain = 0
KSW1 112022Z 15013KT 38/12 A2998 RMK A01 T03790118  RH  021%=      5-min Rain = 0
KSW1 112023Z 14017KT 38/12 A2998 RMK A01 T03790117  RH  021%=      5-min Rain = 0
KSW1 112024Z 15017KT 38/11 A2998 RMK A01 T03780113  RH  020%=      5-min Rain = 0
KSW1 112025Z 16014KT 38/11 A2998 RMK A01 T03750114  RH  021%=      5-min Rain = 0
KSW1 112026Z 16015KT 38/11 A2998 RMK A01 T03770113  RH  020%=      5-min Rain = 0
KSW1 112027Z 16014KT 38/11 A2998 RMK A01 T03760112  RH  020%=      5-min Rain = 0
KSW1 112028Z 16011KT 38/11 A2998 RMK A01 T03750111  RH  021%=      5-min Rain = 0
KSW1 112029Z 16012KT 37/11 A2998 RMK A01 T03740111  RH  021%=      5-min Rain = 0
KSW1 112030Z 15012KT 37/11 A2998 RMK A01 T03720110  RH  021%=      5-min Rain = 0
KSW1 112031Z 16011KT 37/11 A2998 RMK A01 T03740110  RH  020%=      5-min Rain = 0
KSW1 112032Z 14010KT 37/11 A2998 RMK A01 T03740111  RH  021%=      5-min Rain = 0
KSW1 112033Z 13011KT 38/11 A2998 RMK A01 T03760113  RH  021%=      5-min Rain = 0
KSW1 112034Z 13013KT 38/11 A2998 RMK A01 T03790111  RH  020%=      5-min Rain = 0
KSW1 112035Z 13012KT 38/11 A2998 RMK A01 T03790109  RH  020%=      5-min Rain = 0
KSW1 112036Z 17013G18KT 38/11 A2998 RMK A01 T03780109  RH  020%=      5-min Rain = 0
KSW1 112037Z 16014KT 38/11 A2998 RMK A01 T03780109  RH  020%=      5-min Rain = 0
KSW1 112038Z 16011KT 37/11 A2998 RMK A01 T03740108  RH  020%=      5-min Rain = 0
KSW1 112039Z 15011G16KT 37/11 A2997 RMK A01 T03740111  RH  021%=      5-min Rain = 0
KSW1 112040Z 15015G20KT 38/11 A2998 RMK A01 T03790111  RH  020%=      5-min Rain = 0
KSW1 112041Z 14014KT 38/11 A2998 RMK A01 T03800110  RH  020%=      5-min Rain = 0
KSW1 112042Z 15010KT 38/11 A2998 RMK A01 T03770110  RH  020%=      5-min Rain = 0
KSW1 112043Z 17010G15KT 38/11 A2998 RMK A01 T03760110  RH  020%=      5-min Rain = 0
KSW1 112044Z 17013KT 38/11 A2997 RMK A01 T03770110  RH  020%=      5-min Rain = 0
KSW1 112045Z 16013KT 38/11 A2997 RMK A01 T03760110  RH  020%=      5-min Rain = 0
KSW1 112046Z 16008G13KT 37/11 A2997 RMK A01 T03740109  RH  020%=      5-min Rain = 0
KSW1 112047Z 15009G16KT 37/11 A2997 RMK A01 T03730111  RH  021%=      5-min Rain = 0
KSW1 112048Z 16014KT 37/11 A2997 RMK A01 T03740108  RH  020%=      5-min Rain = 0
KSW1 112049Z 17013KT 37/11 A2997 RMK A01 T03730107  RH  020%=      5-min Rain = 0
KSW1 112050Z 17015KT 37/11 A2997 RMK A01 T03730107  RH  020%=      5-min Rain = 0
KSW1 112051Z 16014KT 37/11 A2997 RMK A01 T03740106  RH  020%=      5-min Rain = 0
KSW1 112052Z 14015G20KT 38/11 A2997 RMK A01 T03770106  RH  020%=      5-min Rain = 0
KSW1 112053Z 13013G18KT 38/11 A2997 RMK A01 T03780106  RH  019%=      5-min Rain = 0
KSW1 112054Z 13014KT 38/11 A2997 RMK A01 T03760105  RH  020%=      5-min Rain = 0
KSW1 112055Z 12013KT 38/11 A2997 RMK A01 T03770105  RH  020%=      5-min Rain = 0
KSW1 112056Z 15012KT 38/11 A2997 RMK A01 T03800107  RH  019%=      5-min Rain = 0
KSW1 112057Z 14011G17KT 38/11 A2997 RMK A01 T03810107  RH  019%=      5-min Rain = 0
KSW1 112058Z 14011KT 38/11 A2997 RMK A01 T03810107  RH  019%=      5-min Rain = 0
KSW1 112059Z 14009KT 38/11 A2997 RMK A01 T03820105  RH  019%=      5-min Rain = 0
KSW1 112100Z 13012KT 38/11 A2997 RMK A01 T03820106  RH  019%=      5-min Rain = 0
KSW1 112101Z 16015KT 38/11 A2997 RMK A01 T03820106  RH  019%=      5-min Rain = 0
KSW1 112102Z 17012KT 38/11 A2997 RMK A01 T03820105  RH  019%=      5-min Rain = 0
KSW1 112103Z 16012KT 38/10 A2997 RMK A01 T03810104  RH  019%=      5-min Rain = 0
KSW1 112104Z 15009KT 38/10 A2997 RMK A01 T03780102  RH  019%=      5-min Rain = 0
KSW1 112105Z 16008KT 38/10 A2997 RMK A01 T03750102  RH  019%=      5-min Rain = 0
KSW1 112106Z 15011G17KT 38/10 A2997 RMK A01 T03750103  RH  019%=      5-min Rain = 0
KSW1 112107Z 15014KT 38/10 A2997 RMK A01 T03780102  RH  019%=      5-min Rain = 0
KSW1 112108Z 16014KT 38/10 A2997 RMK A01 T03790101  RH  019%=      5-min Rain = 0
KSW1 112109Z 15014KT 38/10 A2997 RMK A01 T03790100  RH  019%=      5-min Rain = 0
KSW1 112110Z 14015KT 38/10 A2997 RMK A01 T03790101  RH  019%=      5-min Rain = 0
KSW1 112111Z 15012KT 38/10 A2997 RMK A01 T03800100  RH  019%=      5-min Rain = 0
KSW1 112112Z 16010KT 38/10 A2997 RMK A01 T03790100  RH  019%=      5-min Rain = 0
KSW1 112113Z 15013G18KT 38/10 A2997 RMK A01 T03790100  RH  019%=      5-min Rain = 0
KSW1 112114Z 16013KT 38/10 A2997 RMK A01 T03800100  RH  018%=      5-min Rain = 0
KSW1 112115Z 16011KT 38/10 A2997 RMK A01 T03780099  RH  019%=      5-min Rain = 0
KSW1 112116Z 17012KT 38/10 A2997 RMK A01 T03770100  RH  019%=      5-min Rain = 0
KSW1 112117Z 16011KT 38/10 A2997 RMK A01 T03810100  RH  018%=      5-min Rain = 0
KSW1 112118Z 14009KT 38/10 A2996 RMK A01 T03810099  RH  018%=      5-min Rain = 0
KSW1 112119Z 12013KT 38/10 A2996 RMK A01 T03800100  RH  019%=      5-min Rain = 0
KSW1 112120Z 13014KT 38/10 A2996 RMK A01 T03800099  RH  018%=      5-min Rain = 0
KSW1 112121Z 16015G20KT 38/10 A2996 RMK A01 T03810099  RH  018%=      5-min Rain = 0
KSW1 112122Z 17013KT 38/10 A2996 RMK A01 T03820096  RH  018%=      5-min Rain = 0
KSW1 112123Z 16011KT 38/10 A2996 RMK A01 T03810096  RH  018%=      5-min Rain = 0
KSW1 112124Z 17011KT 38/10 A2996 RMK A01 T03810097  RH  018%=      5-min Rain = 0
KSW1 112125Z 18014KT 39/10 A2996 RMK A01 T03850098  RH  018%=      5-min Rain = 0
KSW1 112126Z 17013KT 38/10 A2996 RMK A01 T03840095  RH  018%=      5-min Rain = 0
KSW1 112127Z 16011KT 38/10 A2996 RMK A01 T03830098  RH  018%=      5-min Rain = 0
KSW1 112128Z 16015KT 38/10 A2996 RMK A01 T03840098  RH  018%=      5-min Rain = 0
KSW1 112129Z 16015KT 38/10 A2996 RMK A01 T03820100  RH  018%=      5-min Rain = 0
KSW1 112130Z 16013KT 38/10 A2996 RMK A01 T03800099  RH  018%=      5-min Rain = 0
KSW1 112131Z 15013KT 38/10 A2996 RMK A01 T03800102  RH  019%=      5-min Rain = 0
KSW1 112132Z 16012KT 38/10 A2996 RMK A01 T03820102  RH  019%=      5-min Rain = 0
KSW1 112133Z 16011KT 38/10 A2996 RMK A01 T03830102  RH  018%=      5-min Rain = 0
KSW1 112134Z 17012KT 38/10 A2996 RMK A01 T03820102  RH  018%=      5-min Rain = 0
KSW1 112135Z 16013KT 38/10 A2996 RMK A01 T03820100  RH  018%=      5-min Rain = 0
KSW1 112136Z 16011KT 38/10 A2996 RMK A01 T03810096  RH  018%=      5-min Rain = 0
KSW1 112137Z 17008KT 38/09 A2996 RMK A01 T03770093  RH  018%=      5-min Rain = 0
KSW1 112138Z 16008KT 38/10 A2996 RMK A01 T03770095  RH  018%=      5-min Rain = 0
KSW1 112139Z 17009KT 38/10 A2996 RMK A01 T03790097  RH  018%=      5-min Rain = 0
KSW1 112140Z 16009KT 38/10 A2996 RMK A01 T03790098  RH  018%=      5-min Rain = 0
KSW1 112141Z 16010KT 38/10 A2996 RMK A01 T03800098  RH  018%=      5-min Rain = 0
KSW1 112142Z 14011KT 38/10 A2996 RMK A01 T03820096  RH  018%=      5-min Rain = 0
KSW1 112143Z 14012KT 38/10 A2996 RMK A01 T03820097  RH  018%=      5-min Rain = 0
KSW1 112144Z 14010KT 38/09 A2996 RMK A01 T03820094  RH  018%=      5-min Rain = 0
KSW1 112145Z 14012KT 38/10 A2996 RMK A01 T03810095  RH  018%=      5-min Rain = 0
KSW1 112146Z 13012KT 38/09 A2996 RMK A01 T03830091  RH  017%=      5-min Rain = 0
KSW1 112147Z 14013KT 38/09 A2996 RMK A01 T03840091  RH  017%=      5-min Rain = 0
KSW1 112148Z 15015G20KT 38/09 A2996 RMK A01 T03840092  RH  017%=      5-min Rain = 0
KSW1 112149Z 16017KT 39/09 A2996 RMK A01 T03850093  RH  017%=      5-min Rain = 0
KSW1 112150Z 14015G20KT 39/09 A2996 RMK A01 T03850094  RH  017%=      5-min Rain = 0
KSW1 112151Z 14014KT 38/09 A2996 RMK A01 T03830093  RH  017%=      5-min Rain = 0
KSW1 112152Z 14013KT 38/09 A2996 RMK A01 T03830093  RH  017%=      5-min Rain = 0
KSW1 112153Z 14011KT 38/09 A2996 RMK A01 T03820093  RH  018%=      5-min Rain = 0
KSW1 112154Z 14013KT 39/09 A2996 RMK A01 T03850093  RH  017%=      5-min Rain = 0
KSW1 112155Z 16011KT 38/09 A2996 RMK A01 T03840093  RH  017%=      5-min Rain = 0
KSW1 112156Z 14010KT 38/09 A2996 RMK A01 T03810092  RH  017%=      5-min Rain = 0
KSW1 112157Z 15010KT 38/09 A2996 RMK A01 T03800093  RH  018%=      5-min Rain = 0
KSW1 112158Z 16013KT 38/09 A2996 RMK A01 T03810092  RH  017%=      5-min Rain = 0
KSW1 112159Z 14010KT 38/09 A2996 RMK A01 T03800092  RH  018%=      5-min Rain = 0
KSW1 112200Z 15011KT 38/10 A2996 RMK A01 T03840095  RH  018%=      5-min Rain = 0
KSW1 112201Z 17016KT 39/09 A2996 RMK A01 T03870091  RH  017%=      5-min Rain = 0
KSW1 112202Z 18014KT 38/09 A2996 RMK A01 T03840086  RH  016%=      5-min Rain = 0
KSW1 112203Z 18013KT 38/09 A2996 RMK A01 T03810086  RH  017%=      5-min Rain = 0
KSW1 112204Z 17010KT 38/09 A2996 RMK A01 T03810085  RH  017%=      5-min Rain = 0
KSW1 112205Z 17009KT 38/09 A2996 RMK A01 T03810087  RH  017%=      5-min Rain = 0
KSW1 112206Z 18013KT 38/09 A2996 RMK A01 T03820085  RH  017%=      5-min Rain = 0
KSW1 112207Z 18009KT 38/08 A2996 RMK A01 T03820082  RH  016%=      5-min Rain = 0
KSW1 112208Z 18010KT 38/08 A2996 RMK A01 T03820083  RH  016%=      5-min Rain = 0
KSW1 112209Z 16007KT 38/09 A2996 RMK A01 T03840085  RH  016%=      5-min Rain = 0
KSW1 112210Z 16009G14KT 39/09 A2996 RMK A01 T03870089  RH  017%=      5-min Rain = 0
KSW1 112211Z 16017KT 39/09 A2996 RMK A01 T03880091  RH  017%=      5-min Rain = 0
KSW1 112212Z 16013KT 38/09 A2996 RMK A01 T03840090  RH  017%=      5-min Rain = 0
KSW1 112213Z 16014KT 38/09 A2996 RMK A01 T03830092  RH  017%=      5-min Rain = 0
KSW1 112214Z 17012KT 38/09 A2996 RMK A01 T03810092  RH  017%=      5-min Rain = 0
KSW1 112215Z 16015KT 38/09 A2995 RMK A01 T03800091  RH  017%=      5-min Rain = 0
KSW1 112216Z 16013KT 38/09 A2995 RMK A01 T03800090  RH  017%=      5-min Rain = 0
KSW1 112217Z 18013KT 38/09 A2995 RMK A01 T03800092  RH  018%=      5-min Rain = 0
KSW1 112218Z 18014KT 38/09 A2995 RMK A01 T03810091  RH  017%=      5-min Rain = 0
KSW1 112219Z 17009KT 38/09 A2995 RMK A01 T03790091  RH  018%=      5-min Rain = 0
KSW1 112220Z 18010KT 38/09 A2995 RMK A01 T03790093  RH  018%=      5-min Rain = 0
KSW1 112221Z 19008KT 38/09 A2995 RMK A01 T03800092  RH  018%=      5-min Rain = 0
KSW1 112222Z 17007KT 38/09 A2995 RMK A01 T03780093  RH  018%=      5-min Rain = 0
KSW1 112223Z 19007KT 38/09 A2995 RMK A01 T03790093  RH  018%=      5-min Rain = 0
KSW1 112224Z 18007KT 38/10 A2995 RMK A01 T03810095  RH  018%=      5-min Rain = 0
KSW1 112225Z 18009KT 38/10 A2995 RMK A01 T03840096  RH  018%=      5-min Rain = 0
KSW1 112226Z 17008KT 38/09 A2995 RMK A01 T03840092  RH  017%=      5-min Rain = 0
KSW1 112227Z 16008KT 38/09 A2995 RMK A01 T03810093  RH  018%=      5-min Rain = 0
KSW1 112228Z 16009KT 38/09 A2995 RMK A01 T03810093  RH  018%=      5-min Rain = 0
KSW1 112229Z 15013KT 38/10 A2995 RMK A01 T03820095  RH  018%=      5-min Rain = 0
KSW1 112230Z 15013KT 38/10 A2995 RMK A01 T03810095  RH  018%=      5-min Rain = 0
KSW1 112231Z 15008KT 38/10 A2995 RMK A01 T03800096  RH  018%=      5-min Rain = 0
KSW1 112232Z 16012KT 38/10 A2995 RMK A01 T03820097  RH  018%=      5-min Rain = 0
KSW1 112233Z 16006KT 38/10 A2995 RMK A01 T03830096  RH  018%=      5-min Rain = 0
KSW1 112234Z 17009KT 39/10 A2995 RMK A01 T03850098  RH  018%=      5-min Rain = 0
KSW1 112235Z 18008KT 39/10 A2995 RMK A01 T03850095  RH  017%=      5-min Rain = 0
KSW1 112236Z 20008KT 38/09 A2995 RMK A01 T03820094  RH  018%=      5-min Rain = 0
KSW1 112237Z 19011KT 38/10 A2995 RMK A01 T03810095  RH  018%=      5-min Rain = 0
KSW1 112238Z 18011KT 38/09 A2995 RMK A01 T03830094  RH  017%=      5-min Rain = 0
KSW1 112239Z 16012KT 38/09 A2995 RMK A01 T03810094  RH  018%=      5-min Rain = 0
KSW1 112240Z 15009KT 38/09 A2995 RMK A01 T03810092  RH  017%=      5-min Rain = 0
KSW1 112241Z 16010KT 38/09 A2995 RMK A01 T03810092  RH  017%=      5-min Rain = 0
KSW1 112242Z 16013KT 38/09 A2995 RMK A01 T03810094  RH  018%=      5-min Rain = 0
KSW1 112243Z 17009KT 38/09 A2995 RMK A01 T03790093  RH  018%=      5-min Rain = 0
KSW1 112244Z 17007KT 38/09 A2995 RMK A01 T03760093  RH  018%=      5-min Rain = 0
KSW1 112245Z 16009KT 38/09 A2995 RMK A01 T03770094  RH  018%=      5-min Rain = 0
KSW1 112246Z 15007KT 38/10 A2995 RMK A01 T03770095  RH  018%=      5-min Rain = 0
KSW1 112247Z 15008KT 38/10 A2995 RMK A01 T03790097  RH  018%=      5-min Rain = 0
KSW1 112248Z 16009G17KT 38/10 A2995 RMK A01 T03810097  RH  018%=      5-min Rain = 0
KSW1 112249Z 15013KT 38/10 A2995 RMK A01 T03820101  RH  018%=      5-min Rain = 0
KSW1 112250Z 15014G19KT 38/10 A2995 RMK A01 T03810101  RH  018%=      5-min Rain = 0
KSW1 112251Z 15015KT 38/10 A2995 RMK A01 T03810100  RH  018%=      5-min Rain = 0
KSW1 112252Z 15013KT 38/10 A2995 RMK A01 T03790100  RH  019%=      5-min Rain = 0
KSW1 112253Z 15012KT 38/10 A2995 RMK A01 T03780100  RH  019%=      5-min Rain = 0
KSW1 112254Z 16011G19KT 38/10 A2995 RMK A01 T03780101  RH  019%=      5-min Rain = 0
KSW1 112255Z 16016KT 38/10 A2994 RMK A01 T03790100  RH  019%=      5-min Rain = 0
KSW1 112256Z 16013KT 38/10 A2994 RMK A01 T03770099  RH  019%=      5-min Rain = 0
KSW1 112257Z 15012KT 38/10 A2994 RMK A01 T03760101  RH  019%=      5-min Rain = 0
KSW1 112258Z 15012KT 38/10 A2994 RMK A01 T03780100  RH  019%=      5-min Rain = 0
KSW1 112259Z 16012KT 38/10 A2994 RMK A01 T03780101  RH  019%=      5-min Rain = 0
KSW1 112300Z 13012G17KT 38/10 A2994 RMK A01 T03780102  RH  019%=      5-min Rain = 0
KSW1 112301Z 13015KT 38/10 A2994 RMK A01 T03800101  RH  019%=      5-min Rain = 0
KSW1 112302Z 13014KT 38/10 A2994 RMK A01 T03790101  RH  019%=      5-min Rain = 0
KSW1 112303Z 13014G19KT 38/10 A2994 RMK A01 T03770101  RH  019%=      5-min Rain = 0
KSW1 112304Z 13016KT 38/10 A2994 RMK A01 T03770100  RH  019%=      5-min Rain = 0
KSW1 112305Z 13016KT 38/10 A2994 RMK A01 T03780100  RH  019%=      5-min Rain = 0
KSW1 112306Z 14015KT 38/10 A2994 RMK A01 T03770101  RH  019%=      5-min Rain = 0
KSW1 112307Z 14014KT 38/10 A2994 RMK A01 T03770100  RH  019%=      5-min Rain = 0
KSW1 112308Z 15011KT 38/10 A2994 RMK A01 T03770100  RH  019%=      5-min Rain = 0
KSW1 112309Z 16010KT 38/10 A2994 RMK A01 T03780101  RH  019%=      5-min Rain = 0
KSW1 112310Z 16011KT 38/10 A2994 RMK A01 T03790102  RH  019%=      5-min Rain = 0
KSW1 112311Z 14011KT 38/10 A2994 RMK A01 T03790102  RH  019%=      5-min Rain = 0
KSW1 112312Z 14010KT 38/10 A2994 RMK A01 T03780102  RH  019%=      5-min Rain = 0
KSW1 112313Z 16010KT 38/10 A2994 RMK A01 T03800103  RH  019%=      5-min Rain = 0
KSW1 112314Z 16010KT 38/10 A2994 RMK A01 T03800103  RH  019%=      5-min Rain = 0
KSW1 112315Z 15012KT 38/11 A2994 RMK A01 T03810106  RH  019%=      5-min Rain = 0
KSW1 112316Z 16013KT 38/11 A2994 RMK A01 T03830106  RH  019%=      5-min Rain = 0
KSW1 112317Z 16011KT 38/10 A2994 RMK A01 T03820104  RH  019%=      5-min Rain = 0
KSW1 112318Z 14013KT 38/11 A2994 RMK A01 T03790105  RH  019%=      5-min Rain = 0
KSW1 112319Z 15014KT 38/10 A2994 RMK A01 T03780104  RH  019%=      5-min Rain = 0
KSW1 112320Z 13013KT 38/10 A2994 RMK A01 T03770104  RH  019%=      5-min Rain = 0
KSW1 112321Z 13018KT 38/10 A2994 RMK A01 T03770103  RH  019%=      5-min Rain = 0
KSW1 112322Z 15012KT 38/10 A2994 RMK A01 T03760104  RH  019%=      5-min Rain = 0
KSW1 112323Z 15014KT 38/10 A2994 RMK A01 T03760103  RH  019%=      5-min Rain = 0
KSW1 112324Z 15012KT 37/10 A2994 RMK A01 T03740102  RH  019%=      5-min Rain = 0
KSW1 112325Z 15014KT 37/10 A2994 RMK A01 T03730103  RH  020%=      5-min Rain = 0
KSW1 112326Z 15011KT 37/10 A2994 RMK A01 T03740104  RH  020%=      5-min Rain = 0
KSW1 112327Z 14010KT 38/10 A2994 RMK A01 T03750104  RH  020%=      5-min Rain = 0
KSW1 112328Z 14013KT 38/10 A2994 RMK A01 T03760104  RH  020%=      5-min Rain = 0
KSW1 112329Z 14009KT 38/11 A2994 RMK A01 T03760105  RH  020%=      5-min Rain = 0
KSW1 112330Z 14008G14KT 38/11 A2994 RMK A01 T03760106  RH  020%=      5-min Rain = 0
KSW1 112331Z 15014KT 38/11 A2994 RMK A01 T03780106  RH  019%=      5-min Rain = 0
KSW1 112332Z 15014KT 38/11 A2994 RMK A01 T03770105  RH  019%=      5-min Rain = 0
KSW1 112333Z 15015KT 38/11 A2994 RMK A01 T03760105  RH  020%=      5-min Rain = 0
KSW1 112334Z 15011KT 38/11 A2994 RMK A01 T03750105  RH  020%=      5-min Rain = 0
KSW1 112335Z 13012KT 37/11 A2994 RMK A01 T03740106  RH  020%=      5-min Rain = 0
KSW1 112336Z 13013KT 37/11 A2994 RMK A01 T03740105  RH  020%=      5-min Rain = 0
KSW1 112337Z 14011KT 37/11 A2993 RMK A01 T03740105  RH  020%=      5-min Rain = 0
KSW1 112338Z 14013KT 37/11 A2993 RMK A01 T03740105  RH  020%=      5-min Rain = 0
KSW1 112339Z 14013KT 37/11 A2993 RMK A01 T03740105  RH  020%=      5-min Rain = 0
KSW1 112340Z 15012KT 37/11 A2993 RMK A01 T03730105  RH  020%=      5-min Rain = 0
KSW1 112341Z 15014KT 37/11 A2993 RMK A01 T03740106  RH  020%=      5-min Rain = 0
KSW1 112342Z 15013G18KT 37/11 A2994 RMK A01 T03740105  RH  020%=      5-min Rain = 0
KSW1 112343Z 16012KT 37/11 A2993 RMK A01 T03730105  RH  020%=      5-min Rain = 0
KSW1 112344Z 14012KT 37/11 A2994 RMK A01 T03720107  RH  020%=      5-min Rain = 0
KSW1 112345Z 14012KT 37/11 A2994 RMK A01 T03720106  RH  020%=      5-min Rain = 0
KSW1 112346Z 13010KT 37/11 A2994 RMK A01 T03730107  RH  020%=      5-min Rain = 0
KSW1 112347Z 14009KT 37/11 A2994 RMK A01 T03730106  RH  020%=      5-min Rain = 0
KSW1 112348Z 15011G17KT 37/11 A2994 RMK A01 T03730107  RH  020%=      5-min Rain = 0
KSW1 112349Z 15014KT 37/11 A2994 RMK A01 T03730105  RH  020%=      5-min Rain = 0
KSW1 112350Z 14013KT 37/10 A2993 RMK A01 T03720104  RH  020%=      5-min Rain = 0
KSW1 112351Z 14014KT 37/10 A2993 RMK A01 T03710104  RH  020%=      5-min Rain = 0
KSW1 112352Z 15012KT 37/10 A2993 RMK A01 T03700104  RH  020%=      5-min Rain = 0
KSW1 112353Z 16012KT 37/10 A2993 RMK A01 T03710103  RH  020%=      5-min Rain = 0
KSW1 112354Z 15011KT 37/10 A2993 RMK A01 T03710103  RH  020%=      5-min Rain = 0
KSW1 112355Z 14013KT 37/10 A2993 RMK A01 T03710104  RH  020%=      5-min Rain = 0
KSW1 112356Z 13014KT 37/10 A2993 RMK A01 T03720102  RH  020%=      5-min Rain = 0
KSW1 112357Z 14012KT 37/10 A2993 RMK A01 T03710101  RH  020%=      5-min Rain = 0
KSW1 112358Z 14010G15KT 37/10 A2993 RMK A01 T03700101  RH  020%=      5-min Rain = 0
KSW1 112359Z 13011KT 37/10 A2993 RMK A01 T03700102  RH  020%=      5-min Rain = 0
KSW1 120000Z 14013KT 37/10 A2993 RMK A01 T03710102  RH  020%=      5-min Rain = 0
KSW1 120001Z 14012KT 37/10 A2993 RMK A01 T03700101  RH  020%=      5-min Rain = 0
KSW1 120002Z 15010KT 37/10 A2993 RMK A01 T03710102  RH  020%=      5-min Rain = 0
KSW1 120003Z 14010KT 37/10 A2993 RMK A01 T03700103  RH  020%=      5-min Rain = 0
KSW1 120004Z 14013G18KT 37/10 A2993 RMK A01 T03700104  RH  020%=      5-min Rain = 0
KSW1 120005Z 15012KT 37/10 A2993 RMK A01 T03700104  RH  020%=      5-min Rain = 0
KSW1 120006Z 16011KT 37/11 A2993 RMK A01 T03700105  RH  020%=      5-min Rain = 0
KSW1 120007Z 15010KT 37/11 A2993 RMK A01 T03700106  RH  020%=      5-min Rain = 0
KSW1 120008Z 15014KT 37/11 A2993 RMK A01 T03710105  RH  020%=      5-min Rain = 0
KSW1 120009Z 14012KT 37/10 A2993 RMK A01 T03700104  RH  020%=      5-min Rain = 0
KSW1 120010Z 15014KT 37/10 A2993 RMK A01 T03690104  RH  020%=      5-min Rain = 0
KSW1 120011Z 15012KT 37/10 A2993 RMK A01 T03690104  RH  020%=      5-min Rain = 0
KSW1 120012Z 15012KT 37/10 A2993 RMK A01 T03690104  RH  020%=      5-min Rain = 0
KSW1 120013Z 14010KT 37/10 A2993 RMK A01 T03690104  RH  020%=      5-min Rain = 0
KSW1 120014Z 14010KT 37/10 A2993 RMK A01 T03690104  RH  020%=      5-min Rain = 0
KSW1 120015Z 14011KT 37/10 A2993 RMK A01 T03690104  RH  020%=      5-min Rain = 0
KSW1 120016Z 14011G16KT 37/10 A2994 RMK A01 T03690104  RH  020%=      5-min Rain = 0
KSW1 120017Z 14014KT 37/10 A2994 RMK A01 T03680101  RH  020%=      5-min Rain = 0
KSW1 120018Z 14014KT 37/10 A2994 RMK A01 T03670101  RH  020%=      5-min Rain = 0
KSW1 120019Z 14012KT 37/10 A2994 RMK A01 T03660101  RH  020%=      5-min Rain = 0
KSW1 120020Z 14010KT 37/10 A2994 RMK A01 T03660102  RH  020%=      5-min Rain = 0
KSW1 120021Z 16009KT 37/10 A2994 RMK A01 T03660103  RH  020%=      5-min Rain = 0
KSW1 120022Z 15008KT 37/10 A2994 RMK A01 T03660102  RH  020%=      5-min Rain = 0
KSW1 120023Z 15012KT 37/10 A2993 RMK A01 T03660103  RH  020%=      5-min Rain = 0
KSW1 120024Z 15011KT 37/10 A2993 RMK A01 T03660103  RH  020%=      5-min Rain = 0
KSW1 120025Z 14012KT 37/10 A2993 RMK A01 T03660103  RH  020%=      5-min Rain = 0
KSW1 120026Z 15009KT 37/10 A2993 RMK A01 T03650103  RH  021%=      5-min Rain = 0
KSW1 120027Z 14009KT 37/10 A2993 RMK A01 T03650104  RH  021%=      5-min Rain = 0
KSW1 120028Z 15012KT 37/11 A2993 RMK A01 T03650105  RH  021%=      5-min Rain = 0
KSW1 120029Z 14012KT 37/10 A2993 RMK A01 T03650104  RH  021%=      5-min Rain = 0
KSW1 120030Z 14010KT 37/11 A2993 RMK A01 T03650105  RH  021%=      5-min Rain = 0
KSW1 120031Z 14013KT 36/11 A2993 RMK A01 T03640105  RH  021%=      5-min Rain = 0
KSW1 120032Z 14012KT 36/10 A2993 RMK A01 T03640104  RH  021%=      5-min Rain = 0
KSW1 120033Z 14011KT 36/10 A2993 RMK A01 T03630103  RH  021%=      5-min Rain = 0
KSW1 120034Z 14012KT 36/10 A2993 RMK A01 T03630103  RH  021%=      5-min Rain = 0
KSW1 120035Z 14010KT 36/10 A2993 RMK A01 T03620103  RH  021%=      5-min Rain = 0
KSW1 120036Z 14009KT 36/10 A2993 RMK A01 T03620104  RH  021%=      5-min Rain = 0
KSW1 120037Z 15010KT 36/10 A2993 RMK A01 T03620104  RH  021%=      5-min Rain = 0
KSW1 120038Z 14009KT 36/10 A2993 RMK A01 T03620103  RH  021%=      5-min Rain = 0
KSW1 120039Z 13010KT 36/10 A2993 RMK A01 T03620103  RH  021%=      5-min Rain = 0
KSW1 120040Z 13011KT 36/10 A2993 RMK A01 T03610102  RH  021%=      5-min Rain = 0
KSW1 120041Z 14012KT 36/10 A2993 RMK A01 T03610102  RH  021%=      5-min Rain = 0
KSW1 120042Z 14011KT 36/10 A2993 RMK A01 T03600103  RH  021%=      5-min Rain = 0
KSW1 120043Z 15010KT 36/10 A2993 RMK A01 T03600104  RH  021%=      5-min Rain = 0
KSW1 120044Z 14011KT 36/10 A2993 RMK A01 T03590104  RH  021%=      5-min Rain = 0
KSW1 120045Z 15012KT 36/10 A2993 RMK A01 T03590104  RH  021%=      5-min Rain = 0
KSW1 120046Z 15011G16KT 36/11 A2993 RMK A01 T03590105  RH  021%=      5-min Rain = 0
KSW1 120047Z 15014KT 36/10 A2993 RMK A01 T03580104  RH  021%=      5-min Rain = 0
KSW1 120048Z 14010G15KT 36/11 A2993 RMK A01 T03580105  RH  022%=      5-min Rain = 0
KSW1 120049Z 14011KT 36/11 A2993 RMK A01 T03580105  RH  022%=      5-min Rain = 0
KSW1 120050Z 14013KT 36/11 A2993 RMK A01 T03570105  RH  022%=      5-min Rain = 0
KSW1 120051Z 16012KT 36/11 A2993 RMK A01 T03570105  RH  022%=      5-min Rain = 0
KSW1 120052Z 15012KT 36/11 A2993 RMK A01 T03570105  RH  022%=      5-min Rain = 0
KSW1 120053Z 15011KT 36/11 A2993 RMK A01 T03560105  RH  022%=      5-min Rain = 0
KSW1 120054Z 15011KT 36/11 A2993 RMK A01 T03560105  RH  022%=      5-min Rain = 0
KSW1 120055Z 15011KT 36/11 A2993 RMK A01 T03550105  RH  022%=      5-min Rain = 0
KSW1 120056Z 15012KT 36/11 A2993 RMK A01 T03550105  RH  022%=      5-min Rain = 0
KSW1 120057Z 15010KT 36/11 A2993 RMK A01 T03550106  RH  022%=      5-min Rain = 0
KSW1 120058Z 15009KT 35/11 A2994 RMK A01 T03540106  RH  022%=      5-min Rain = 0
KSW1 120059Z 15009KT 35/11 A2993 RMK A01 T03530106  RH  022%=      5-min Rain = 0
KSW1 120100Z 14007KT 35/11 A2993 RMK A01 T03530106  RH  022%=      5-min Rain = 0
KSW1 120101Z 14009KT 35/11 A2994 RMK A01 T03520107  RH  023%=      5-min Rain = 0
KSW1 120102Z 14010KT 35/11 A2993 RMK A01 T03520106  RH  023%=      5-min Rain = 0
KSW1 120103Z 15009KT 35/11 A2993 RMK A01 T03510106  RH  023%=      5-min Rain = 0
KSW1 120104Z 14009KT 35/11 A2993 RMK A01 T03510107  RH  023%=      5-min Rain = 0
KSW1 120105Z 14009KT 35/11 A2993 RMK A01 T03500107  RH  023%=      5-min Rain = 0
KSW1 120106Z 14008KT 35/11 A2993 RMK A01 T03490107  RH  023%=      5-min Rain = 0
KSW1 120107Z 14009KT 35/11 A2993 RMK A01 T03480107  RH  023%=      5-min Rain = 0
KSW1 120108Z 14010KT 35/11 A2994 RMK A01 T03480107  RH  023%=      5-min Rain = 0
KSW1 120109Z 14009KT 35/11 A2994 RMK A01 T03470106  RH  023%=      5-min Rain = 0
KSW1 120110Z 14008KT 35/11 A2994 RMK A01 T03470107  RH  023%=      5-min Rain = 0
KSW1 120111Z 14010KT 35/11 A2994 RMK A01 T03460107  RH  023%=      5-min Rain = 0
KSW1 120112Z 14009KT 35/11 A2994 RMK A01 T03460107  RH  023%=      5-min Rain = 0
KSW1 120113Z 14008KT 35/11 A2994 RMK A01 T03450107  RH  024%=      5-min Rain = 0
KSW1 120114Z 14008KT 34/11 A2994 RMK A01 T03440107  RH  024%=      5-min Rain = 0
KSW1 120115Z 14009KT 34/11 A2994 RMK A01 T03430107  RH  024%=      5-min Rain = 0
KSW1 120116Z 14008KT 34/11 A2994 RMK A01 T03430108  RH  024%=      5-min Rain = 0
KSW1 120117Z 14009KT 34/11 A2994 RMK A01 T03410107  RH  024%=      5-min Rain = 0
KSW1 120118Z 14009KT 34/11 A2993 RMK A01 T03400108  RH  024%=      5-min Rain = 0
KSW1 120119Z 13009KT 34/11 A2994 RMK A01 T03400108  RH  024%=      5-min Rain = 0
KSW1 120120Z 14009KT 34/11 A2994 RMK A01 T03390108  RH  024%=      5-min Rain = 0
KSW1 120121Z 14009KT 34/11 A2994 RMK A01 T03380108  RH  025%=      5-min Rain = 0
KSW1 120122Z 14009KT 34/11 A2994 RMK A01 T03380108  RH  025%=      5-min Rain = 0
KSW1 120123Z 14009KT 34/11 A2994 RMK A01 T03370108  RH  025%=      5-min Rain = 0
KSW1 120124Z 14009KT 34/11 A2994 RMK A01 T03370108  RH  025%=      5-min Rain = 0
KSW1 120125Z 14008KT 34/11 A2994 RMK A01 T03370108  RH  025%=      5-min Rain = 0
KSW1 120126Z 14009KT 34/11 A2994 RMK A01 T03360108  RH  025%=      5-min Rain = 0
KSW1 120127Z 14008KT 34/11 A2994 RMK A01 T03350108  RH  025%=      5-min Rain = 0
KSW1 120128Z 14008KT 33/11 A2994 RMK A01 T03340108  RH  025%=      5-min Rain = 0
KSW1 120129Z 14009KT 33/11 A2994 RMK A01 T03330108  RH  025%=      5-min Rain = 0
KSW1 120130Z 14008KT 33/11 A2994 RMK A01 T03320108  RH  025%=      5-min Rain = 0
KSW1 120131Z 13008KT 33/11 A2994 RMK A01 T03310108  RH  026%=      5-min Rain = 0
KSW1 120132Z 13008KT 33/11 A2994 RMK A01 T03310108  RH  026%=      5-min Rain = 0
KSW1 120133Z 13007KT 33/11 A2994 RMK A01 T03300108  RH  026%=      5-min Rain = 0
KSW1 120134Z 14007KT 33/11 A2994 RMK A01 T03290107  RH  026%=      5-min Rain = 0
KSW1 120135Z 13007KT 33/11 A2994 RMK A01 T03290108  RH  026%=      5-min Rain = 0
KSW1 120136Z 13007KT 33/11 A2994 RMK A01 T03280107  RH  026%=      5-min Rain = 0
KSW1 120137Z 14007KT 33/11 A2994 RMK A01 T03270107  RH  026%=      5-min Rain = 0
KSW1 120138Z 14007KT 33/11 A2994 RMK A01 T03260108  RH  026%=      5-min Rain = 0
KSW1 120139Z 13007KT 32/11 A2994 RMK A01 T03240108  RH  026%=      5-min Rain = 0
KSW1 120140Z 14007KT 32/11 A2994 RMK A01 T03230108  RH  027%=      5-min Rain = 0
KSW1 120141Z 14007KT 32/11 A2994 RMK A01 T03220108  RH  027%=      5-min Rain = 0
KSW1 120142Z 14008KT 32/11 A2994 RMK A01 T03220108  RH  027%=      5-min Rain = 0
KSW1 120143Z 14008KT 32/11 A2994 RMK A01 T03210108  RH  027%=      5-min Rain = 0
KSW1 120144Z 14007KT 32/11 A2994 RMK A01 T03210109  RH  027%=      5-min Rain = 0
KSW1 120145Z 14007KT 32/11 A2994 RMK A01 T03210109  RH  027%=      5-min Rain = 0
KSW1 120146Z 14007KT 32/11 A2994 RMK A01 T03200109  RH  027%=      5-min Rain = 0
KSW1 120147Z 14008KT 32/11 A2994 RMK A01 T03190109  RH  028%=      5-min Rain = 0
KSW1 120148Z 14007KT 32/11 A2994 RMK A01 T03180109  RH  028%=      5-min Rain = 0
KSW1 120149Z 14007KT 32/11 A2994 RMK A01 T03170109  RH  028%=      5-min Rain = 0
KSW1 120150Z 14007KT 32/11 A2994 RMK A01 T03170110  RH  028%=      5-min Rain = 0
KSW1 120151Z 14007KT 32/11 A2994 RMK A01 T03170110  RH  028%=      5-min Rain = 0
KSW1 120152Z 14007KT 32/11 A2994 RMK A01 T03170110  RH  028%=      5-min Rain = 0
KSW1 120153Z 14007KT 32/11 A2994 RMK A01 T03170110  RH  028%=      5-min Rain = 0
KSW1 120154Z 14008KT 32/11 A2994 RMK A01 T03160110  RH  028%=      5-min Rain = 0
KSW1 120155Z 14008KT 32/11 A2994 RMK A01 T03150110  RH  028%=      5-min Rain = 0
KSW1 120156Z 14008KT 32/11 A2995 RMK A01 T03160110  RH  028%=      5-min Rain = 0
KSW1 120157Z 14008KT 32/11 A2994 RMK A01 T03160110  RH  028%=      5-min Rain = 0
KSW1 120158Z 14008KT 32/11 A2994 RMK A01 T03160110  RH  028%=      5-min Rain = 0
KSW1 120159Z 14008KT 32/11 A2994 RMK A01 T03160110  RH  028%=      5-min Rain = 0
KSW1 120200Z 14008KT 32/11 A2994 RMK A01 T03160110  RH  028%=      5-min Rain = 0
KSW1 120201Z 14009KT 32/11 A2994 RMK A01 T03160110  RH  028%=      5-min Rain = 0
KSW1 120202Z 14008KT 32/11 A2994 RMK A01 T03160110  RH  028%=      5-min Rain = 0
KSW1 120203Z 14009KT 32/11 A2994 RMK A01 T03160111  RH  028%=      5-min Rain = 0
KSW1 120204Z 14008KT 32/11 A2995 RMK A01 T03160110  RH  028%=      5-min Rain = 0
KSW1 120205Z 15008KT 32/11 A2995 RMK A01 T03170111  RH  028%=      5-min Rain = 0
KSW1 120206Z 14007KT 32/11 A2995 RMK A01 T03170111  RH  028%=      5-min Rain = 0
KSW1 120207Z 14008KT 32/11 A2995 RMK A01 T03160111  RH  028%=      5-min Rain = 0
KSW1 120208Z 14007KT 32/11 A2995 RMK A01 T03160111  RH  028%=      5-min Rain = 0
KSW1 120209Z 15008KT 32/11 A2995 RMK A01 T03160111  RH  028%=      5-min Rain = 0
KSW1 120210Z 14008KT 32/11 A2995 RMK A01 T03160111  RH  028%=      5-min Rain = 0
KSW1 120211Z 15008KT 32/11 A2995 RMK A01 T03160111  RH  028%=      5-min Rain = 0
KSW1 120212Z 15008KT 32/11 A2995 RMK A01 T03160111  RH  028%=      5-min Rain = 0
KSW1 120213Z 14007KT 32/11 A2995 RMK A01 T03170111  RH  028%=      5-min Rain = 0
KSW1 120214Z 14007KT 32/11 A2995 RMK A01 T03170111  RH  028%=      5-min Rain = 0
KSW1 120215Z 14007KT 32/11 A2995 RMK A01 T03170111  RH  028%=      5-min Rain = 0
KSW1 120216Z 14007KT 32/11 A2995 RMK A01 T03170111  RH  028%=      5-min Rain = 0
KSW1 120217Z 14008KT 32/11 A2995 RMK A01 T03160111  RH  028%=      5-min Rain = 0
KSW1 120218Z 14008KT 32/11 A2995 RMK A01 T03160111  RH  028%=      5-min Rain = 0
KSW1 120219Z 14007KT 32/11 A2995 RMK A01 T03160111  RH  028%=      5-min Rain = 0
KSW1 120220Z 14007KT 32/11 A2995 RMK A01 T03160111  RH  028%=      5-min Rain = 0
KSW1 120221Z 14008KT 32/11 A2995 RMK A01 T03160111  RH  028%=      5-min Rain = 0
KSW1 120222Z 14007KT 32/11 A2995 RMK A01 T03160112  RH  028%=      5-min Rain = 0
KSW1 120223Z 14008KT 32/11 A2996 RMK A01 T03160112  RH  029%=      5-min Rain = 0
KSW1 120224Z 14008KT 32/11 A2996 RMK A01 T03160112  RH  029%=      5-min Rain = 0
KSW1 120225Z 14008KT 32/11 A2996 RMK A01 T03150112  RH  029%=      5-min Rain = 0
KSW1 120226Z 14008KT 32/11 A2996 RMK A01 T03150112  RH  029%=      5-min Rain = 0
KSW1 120227Z 14008KT 32/11 A2996 RMK A01 T03150112  RH  029%=      5-min Rain = 0
KSW1 120228Z 14008KT 32/11 A2996 RMK A01 T03150112  RH  029%=      5-min Rain = 0
KSW1 120229Z 14008KT 32/11 A2996 RMK A01 T03160112  RH  029%=      5-min Rain = 0
KSW1 120230Z 14008KT 32/11 A2996 RMK A01 T03150112  RH  029%=      5-min Rain = 0
KSW1 120231Z 14007KT 31/11 A2996 RMK A01 T03140112  RH  029%=      5-min Rain = 0
KSW1 120232Z 14008KT 31/11 A2996 RMK A01 T03140112  RH  029%=      5-min Rain = 0
KSW1 120233Z 13008KT 31/11 A2996 RMK A01 T03140112  RH  029%=      5-min Rain = 0
KSW1 120234Z 13007KT 31/11 A2996 RMK A01 T03140112  RH  029%=      5-min Rain = 0
KSW1 120235Z 13007KT 31/11 A2996 RMK A01 T03130112  RH  029%=      5-min Rain = 0
KSW1 120236Z 13007KT 31/11 A2996 RMK A01 T03120112  RH  029%=      5-min Rain = 0
KSW1 120237Z 13007KT 31/11 A2996 RMK A01 T03100111  RH  029%=      5-min Rain = 0
KSW1 120238Z 14007KT 31/11 A2996 RMK A01 T03100112  RH  030%=      5-min Rain = 0
KSW1 120239Z 13007KT 31/11 A2996 RMK A01 T03090112  RH  030%=      5-min Rain = 0
KSW1 120240Z 13007KT 31/11 A2996 RMK A01 T03080112  RH  030%=      5-min Rain = 0
KSW1 120241Z 13007KT 31/11 A2996 RMK A01 T03070112  RH  030%=      5-min Rain = 0
KSW1 120242Z 14007KT 31/11 A2996 RMK A01 T03060112  RH  030%=      5-min Rain = 0
KSW1 120243Z 14007KT 31/11 A2996 RMK A01 T03050112  RH  030%=      5-min Rain = 0
KSW1 120244Z 13007KT 30/11 A2996 RMK A01 T03040112  RH  031%=      5-min Rain = 0
KSW1 120245Z 13008KT 30/11 A2996 RMK A01 T03040112  RH  031%=      5-min Rain = 0
KSW1 120246Z 13008KT 30/11 A2996 RMK A01 T03030112  RH  031%=      5-min Rain = 0
KSW1 120247Z 13008KT 30/11 A2996 RMK A01 T03030112  RH  031%=      5-min Rain = 0
KSW1 120248Z 13008KT 30/11 A2996 RMK A01 T03030112  RH  031%=      5-min Rain = 0
KSW1 120249Z 13008KT 30/11 A2996 RMK A01 T03020112  RH  031%=      5-min Rain = 0
KSW1 120250Z 13007KT 30/11 A2996 RMK A01 T03020112  RH  031%=      5-min Rain = 0
KSW1 120251Z 14008KT 30/11 A2996 RMK A01 T03020112  RH  031%=      5-min Rain = 0
KSW1 120252Z 13007KT 30/11 A2997 RMK A01 T03010112  RH  031%=      5-min Rain = 0
KSW1 120253Z 13008KT 30/11 A2997 RMK A01 T03010112  RH  031%=      5-min Rain = 0
KSW1 120254Z 14007KT 30/11 A2997 RMK A01 T03010112  RH  031%=      5-min Rain = 0
KSW1 120255Z 13008KT 30/11 A2997 RMK A01 T03010112  RH  031%=      5-min Rain = 0
KSW1 120256Z 13008KT 30/11 A2997 RMK A01 T03010113  RH  031%=      5-min Rain = 0
KSW1 120257Z 14008KT 30/11 A2997 RMK A01 T03010113  RH  031%=      5-min Rain = 0
KSW1 120258Z 14008KT 30/11 A2997 RMK A01 T03010113  RH  031%=      5-min Rain = 0
KSW1 120259Z 14008KT 30/11 A2997 RMK A01 T03010113  RH  031%=      5-min Rain = 0
KSW1 120300Z 13008KT 30/11 A2997 RMK A01 T03010114  RH  031%=      5-min Rain = 0
KSW1 120301Z 13008KT 30/11 A2997 RMK A01 T03010114  RH  031%=      5-min Rain = 0
KSW1 120302Z 13008KT 30/11 A2997 RMK A01 T03010114  RH  031%=      5-min Rain = 0
KSW1 120303Z 13008KT 30/11 A2997 RMK A01 T03010114  RH  032%=      5-min Rain = 0
KSW1 120304Z 13008KT 30/11 A2997 RMK A01 T03020114  RH  032%=      5-min Rain = 0
KSW1 120305Z 13008KT 30/12 A2997 RMK A01 T03020115  RH  032%=      5-min Rain = 0
KSW1 120306Z 14008KT 30/12 A2997 RMK A01 T03020115  RH  032%=      5-min Rain = 0
KSW1 120307Z 14007KT 30/12 A2997 RMK A01 T03020115  RH  032%=      5-min Rain = 0
KSW1 120308Z 14008KT 30/12 A2997 RMK A01 T03020115  RH  032%=      5-min Rain = 0
KSW1 120309Z 14008KT 30/12 A2997 RMK A01 T03010116  RH  032%=      5-min Rain = 0
KSW1 120310Z 14007KT 30/12 A2998 RMK A01 T03010116  RH  032%=      5-min Rain = 0
KSW1 120311Z 13008KT 30/12 A2998 RMK A01 T03010116  RH  032%=      5-min Rain = 0
KSW1 120312Z 14008KT 30/12 A2998 RMK A01 T03010116  RH  032%=      5-min Rain = 0
KSW1 120313Z 14008KT 30/12 A2998 RMK A01 T03010116  RH  032%=      5-min Rain = 0
KSW1 120314Z 13007KT 30/12 A2998 RMK A01 T03010116  RH  032%=      5-min Rain = 0
KSW1 120315Z 14008KT 30/12 A2998 RMK A01 T03020117  RH  032%=      5-min Rain = 0
KSW1 120316Z 14008KT 30/12 A2998 RMK A01 T03020117  RH  032%=      5-min Rain = 0
KSW1 120317Z 14008KT 30/12 A2998 RMK A01 T03020117  RH  032%=      5-min Rain = 0
KSW1 120318Z 14008KT 30/12 A2998 RMK A01 T03030118  RH  032%=      5-min Rain = 0
KSW1 120319Z 14008KT 30/12 A2998 RMK A01 T03030118  RH  032%=      5-min Rain = 0
KSW1 120320Z 14008KT 30/12 A2998 RMK A01 T03030118  RH  032%=      5-min Rain = 0
KSW1 120321Z 14008KT 30/12 A2998 RMK A01 T03040118  RH  032%=      5-min Rain = 0
KSW1 120322Z 14008KT 30/12 A2998 RMK A01 T03040119  RH  032%=      5-min Rain = 0
KSW1 120323Z 14008KT 31/12 A2998 RMK A01 T03050119  RH  032%=      5-min Rain = 0
KSW1 120324Z 14008KT 31/12 A2998 RMK A01 T03050119  RH  032%=      5-min Rain = 0
KSW1 120325Z 14009KT 31/12 A2998 RMK A01 T03060119  RH  032%=      5-min Rain = 0
KSW1 120326Z 14009KT 31/12 A2998 RMK A01 T03060120  RH  032%=      5-min Rain = 0
KSW1 120327Z 14008KT 31/12 A2998 RMK A01 T03060120  RH  032%=      5-min Rain = 0
KSW1 120328Z 14009KT 31/12 A2998 RMK A01 T03060120  RH  032%=      5-min Rain = 0
KSW1 120329Z 14008KT 31/12 A2998 RMK A01 T03070120  RH  032%=      5-min Rain = 0
KSW1 120330Z 14008KT 31/12 A2999 RMK A01 T03070120  RH  032%=      5-min Rain = 0
KSW1 120331Z 14008KT 31/12 A2999 RMK A01 T03060120  RH  032%=      5-min Rain = 0
KSW1 120332Z 15008KT 31/12 A2999 RMK A01 T03060121  RH  032%=      5-min Rain = 0
KSW1 120333Z 14009KT 31/12 A2999 RMK A01 T03060121  RH  032%=      5-min Rain = 0
KSW1 120334Z 14009KT 31/12 A2999 RMK A01 T03070121  RH  032%=      5-min Rain = 0
KSW1 120335Z 14009KT 31/12 A2999 RMK A01 T03080121  RH  032%=      5-min Rain = 0
KSW1 120336Z 15009KT 31/12 A2999 RMK A01 T03080122  RH  032%=      5-min Rain = 0
KSW1 120337Z 15011KT 31/12 A2999 RMK A01 T03080122  RH  032%=      5-min Rain = 0
KSW1 120338Z 14009KT 31/12 A2999 RMK A01 T03100122  RH  032%=      5-min Rain = 0
KSW1 120339Z 15009KT 31/12 A2999 RMK A01 T03110123  RH  032%=      5-min Rain = 0
KSW1 120340Z 15009KT 31/12 A2999 RMK A01 T03110123  RH  032%=      5-min Rain = 0
KSW1 120341Z 15008KT 31/12 A2999 RMK A01 T03110123  RH  032%=      5-min Rain = 0
KSW1 120342Z 15009KT 31/12 A2999 RMK A01 T03110123  RH  032%=      5-min Rain = 0
KSW1 120343Z 15008KT 31/12 A2999 RMK A01 T03100123  RH  032%=      5-min Rain = 0
KSW1 120344Z 15010KT 31/12 A2999 RMK A01 T03100123  RH  032%=      5-min Rain = 0
KSW1 120345Z 15009KT 31/12 A2999 RMK A01 T03100123  RH  032%=      5-min Rain = 0
KSW1 120346Z 14010KT 31/12 A2999 RMK A01 T03100123  RH  032%=      5-min Rain = 0
KSW1 120347Z 15008KT 31/12 A2999 RMK A01 T03110123  RH  032%=      5-min Rain = 0
KSW1 120348Z 15010KT 31/12 A2999 RMK A01 T03110123  RH  032%=      5-min Rain = 0
KSW1 120349Z 15008KT 31/12 A2999 RMK A01 T03110123  RH  032%=      5-min Rain = 0
KSW1 120350Z 15008KT 31/12 A2999 RMK A01 T03100123  RH  032%=      5-min Rain = 0
KSW1 120351Z 15009KT 31/12 A2999 RMK A01 T03100123  RH  032%=      5-min Rain = 0
KSW1 120352Z 15008KT 31/12 A2999 RMK A01 T03100124  RH  032%=      5-min Rain = 0
KSW1 120353Z 15009KT 31/12 A2999 RMK A01 T03100124  RH  032%=      5-min Rain = 0
KSW1 120354Z 15010KT 31/12 A2999 RMK A01 T03100124  RH  032%=      5-min Rain = 0
KSW1 120355Z 15010KT 31/12 A2999 RMK A01 T03100124  RH  032%=      5-min Rain = 0
KSW1 120356Z 15009KT 31/12 A30 RMK A01 T03100124  RH  032%=      5-min Rain = 0
KSW1 120357Z 15010KT 31/12 A30 RMK A01 T03100124  RH  032%=      5-min Rain = 0
KSW1 120358Z 15009KT 31/12 A30 RMK A01 T03100123  RH  032%=      5-min Rain = 0
KSW1 120359Z 15010KT 31/12 A30 RMK A01 T03100123  RH  032%=      5-min Rain = 0
KSW1 120400Z 15009KT 31/12 A30 RMK A01 T03100123  RH  032%=      5-min Rain = 0
KSW1 120401Z 16010KT 31/12 A30 RMK A01 T03100123  RH  032%=      5-min Rain = 0
KSW1 120402Z 15011KT 31/12 A30 RMK A01 T03100123  RH  032%=      5-min Rain = 0
KSW1 120403Z 15010KT 31/12 A30 RMK A01 T03100123  RH  032%=      5-min Rain = 0
KSW1 120404Z 15010KT 31/12 A30 RMK A01 T03100123  RH  032%=      5-min Rain = 0
KSW1 120405Z 15011KT 31/12 A30 RMK A01 T03100123  RH  032%=      5-min Rain = 0
KSW1 120406Z 15011KT 31/12 A30 RMK A01 T03110123  RH  032%=      5-min Rain = 0
KSW1 120407Z 15011KT 31/12 A30 RMK A01 T03120123  RH  032%=      5-min Rain = 0
KSW1 120408Z 15009KT 31/12 A30 RMK A01 T03120123  RH  032%=      5-min Rain = 0
KSW1 120409Z 15010KT 31/12 A30 RMK A01 T03110123  RH  032%=      5-min Rain = 0
KSW1 120410Z 15010KT 31/12 A30 RMK A01 T03100123  RH  032%=      5-min Rain = 0
KSW1 120411Z 15010KT 31/12 A30 RMK A01 T03100124  RH  032%=      5-min Rain = 0
KSW1 120412Z 16011KT 31/12 A30 RMK A01 T03100124  RH  032%=      5-min Rain = 0
KSW1 120413Z 15009KT 31/12 A30 RMK A01 T03100124  RH  032%=      5-min Rain = 0
KSW1 120414Z 16010KT 31/12 A30 RMK A01 T03090124  RH  032%=      5-min Rain = 0
KSW1 120415Z 15010KT 31/12 A30 RMK A01 T03090124  RH  032%=      5-min Rain = 0
KSW1 120416Z 15010KT 31/12 A30 RMK A01 T03090124  RH  032%=      5-min Rain = 0
KSW1 120417Z 15010KT 31/12 A30 RMK A01 T03080124  RH  032%=      5-min Rain = 0
KSW1 120418Z 15009KT 31/13 A30 RMK A01 T03090125  RH  032%=      5-min Rain = 0
KSW1 120419Z 16009KT 31/13 A30 RMK A01 T03080125  RH  032%=      5-min Rain = 0
KSW1 120420Z 15010KT 31/13 A30 RMK A01 T03080125  RH  033%=      5-min Rain = 0
KSW1 120421Z 15010KT 31/13 A30 RMK A01 T03080125  RH  033%=      5-min Rain = 0
KSW1 120422Z 15009KT 31/13 A30 RMK A01 T03070125  RH  033%=      5-min Rain = 0
KSW1 120423Z 15011KT 31/13 A30 RMK A01 T03060125  RH  033%=      5-min Rain = 0
KSW1 120424Z 15012KT 31/13 A30 RMK A01 T03060125  RH  033%=      5-min Rain = 0
KSW1 120425Z 15010KT 31/13 A30 RMK A01 T03070125  RH  033%=      5-min Rain = 0
KSW1 120426Z 15011KT 31/13 A30 RMK A01 T03070126  RH  033%=      5-min Rain = 0
KSW1 120427Z 15011KT 31/13 A30 RMK A01 T03070126  RH  033%=      5-min Rain = 0
KSW1 120428Z 15010KT 31/13 A30 RMK A01 T03070126  RH  033%=      5-min Rain = 0
KSW1 120429Z 15010KT 31/13 A30 RMK A01 T03070126  RH  033%=      5-min Rain = 0
KSW1 120430Z 15011KT 31/13 A30 RMK A01 T03060126  RH  033%=      5-min Rain = 0
KSW1 120431Z 16009KT 31/13 A30 RMK A01 T03050126  RH  033%=      5-min Rain = 0
KSW1 120432Z 16011KT 31/13 A30 RMK A01 T03050126  RH  033%=      5-min Rain = 0
KSW1 120433Z 15010KT 30/13 A30 RMK A01 T03040126  RH  034%=      5-min Rain = 0
KSW1 120434Z 15010KT 30/13 A30 RMK A01 T03040126  RH  034%=      5-min Rain = 0
KSW1 120435Z 15009KT 30/13 A30 RMK A01 T03040126  RH  034%=      5-min Rain = 0
KSW1 120436Z 15009KT 30/13 A30 RMK A01 T03030126  RH  034%=      5-min Rain = 0
KSW1 120437Z 14011KT 30/13 A30 RMK A01 T03020127  RH  034%=      5-min Rain = 0
KSW1 120438Z 15011KT 30/13 A30 RMK A01 T03020127  RH  034%=      5-min Rain = 0
KSW1 120439Z 15011KT 30/13 A30 RMK A01 T03020127  RH  034%=      5-min Rain = 0
KSW1 120440Z 15011KT 30/13 A30 RMK A01 T03020128  RH  034%=      5-min Rain = 0
KSW1 120441Z 15012KT 30/13 A30 RMK A01 T03030129  RH  034%=      5-min Rain = 0
KSW1 120442Z 15013KT 30/13 A30 RMK A01 T03040129  RH  034%=      5-min Rain = 0
KSW1 120443Z 15010KT 30/13 A30 RMK A01 T03040129  RH  034%=      5-min Rain = 0
KSW1 120444Z 15012KT 30/13 A2999 RMK A01 T03040130  RH  035%=      5-min Rain = 0
KSW1 120445Z 15013KT 30/13 A2999 RMK A01 T03040131  RH  035%=      5-min Rain = 0
KSW1 120446Z 16012KT 30/13 A2999 RMK A01 T03040131  RH  035%=      5-min Rain = 0
KSW1 120447Z 15011KT 30/13 A2999 RMK A01 T03040132  RH  035%=      5-min Rain = 0
KSW1 120448Z 15011KT 30/13 A30 RMK A01 T03040133  RH  035%=      5-min Rain = 0
KSW1 120449Z 15014KT 30/13 A2999 RMK A01 T03030133  RH  035%=      5-min Rain = 0
KSW1 120450Z 15011KT 30/13 A30 RMK A01 T03040134  RH  035%=      5-min Rain = 0
KSW1 120451Z 15011KT 30/13 A30 RMK A01 T03040134  RH  035%=      5-min Rain = 0
KSW1 120452Z 15014KT 30/14 A2999 RMK A01 T03030135  RH  036%=      5-min Rain = 0
KSW1 120453Z 15013KT 30/14 A2999 RMK A01 T03030135  RH  036%=      5-min Rain = 0
KSW1 120454Z 16014KT 30/14 A2999 RMK A01 T03040135  RH  036%=      5-min Rain = 0
KSW1 120455Z 15012KT 30/14 A2999 RMK A01 T03040136  RH  036%=      5-min Rain = 0
KSW1 120456Z 16013KT 30/14 A2999 RMK A01 T03040136  RH  036%=      5-min Rain = 0
KSW1 120457Z 15014KT 30/14 A2999 RMK A01 T03030136  RH  036%=      5-min Rain = 0
KSW1 120458Z 15012KT 30/14 A2999 RMK A01 T03030137  RH  036%=      5-min Rain = 0
KSW1 120459Z 16013KT 30/14 A2999 RMK A01 T03030137  RH  036%=      5-min Rain = 0

Page generated in 0.1287 seconds.